Page updated: 2020-02-08T10:03:47 UTC ( 2020-02-08T00:03:47 HST )
  Jump to: Map   Top of Page   Distances   Track Data   Planned Ports of Call   Notes   Google Earth   Bottom of Page
  Great Circle Distances:
  Last reported position of Hōkūleʻa at 2019-10-28T01:52:00Z, latitude: 21.31414, longitude: -157.88869 is:
  Distance to last port:        0.1 km (        0.1 nm )  Māmala/METC - Oʻahu, Hawaiʻi 
  Distance to next port:        0.1 km (        0.1 nm )  Māmala/METC - Oʻahu, Hawaiʻi 


  Last reported position of Hikianalia at 2019-05-01T01:50:00Z, latitude: 21.31317, longitude: -157.88857 is:
  Distance to last port:        0.1 km (        0.0 nm )  Māmala/METC - Oʻahu, Hawaiʻi 
  Distance to next port:        0.1 km (        0.0 nm )  Māmala/METC - Oʻahu, Hawaiʻi 


  Jump to: Map   Top of Page   Distances   Track Data   Planned Ports of Call   Notes   Google Earth   Bottom of Page
  Track data: (most recent on top)
  Each circular icon on the map marks a measurement point in this list.
              Date-Time(UTC)   Hawaiʻi-Standard-Time    Approximate-Local-Time    Latitude  Longitude  Course Speed Vessel
        YYYY-MM-DDThh:mm:ssZ YYYY-MM-DDThh:mm:ss-10:00 YYYY-MM-DDThh:mm:ss∓HH:MM   degrees    degrees degrees knots 
        2019-10-28T01:52:00Z 2019-10-27T15:52:00-10:00 2019-10-27T14:52:00-11:00  21.31414 -157.88869     125   0.1 Hōkūleʻa
        2019-10-27T13:46:00Z 2019-10-27T03:46:00-10:00 2019-10-27T02:46:00-11:00  21.32398 -157.90388     308   0.1 Hōkūleʻa
        2019-08-31T06:50:00Z 2019-08-30T20:50:00-10:00 2019-08-30T19:50:00-11:00  21.31317 -157.88845     118   1.7 Hōkūleʻa
        2019-08-30T06:44:00Z 2019-08-29T20:44:00-10:00 2019-08-29T19:44:00-11:00  21.47561 -158.22185     298   1.7 Hōkūleʻa
        2019-08-25T17:26:00Z 2019-08-25T07:26:00-10:00 2019-08-25T06:26:00-11:00  21.31304 -157.88894     334   0.2 Hōkūleʻa
        2019-08-25T05:10:00Z 2019-08-24T19:10:00-10:00 2019-08-24T18:10:00-11:00  21.27052 -157.86694     154   0.2 Hōkūleʻa
        2019-08-19T16:04:00Z 2019-08-19T06:04:00-10:00 2019-08-19T05:04:00-11:00  21.31292 -157.88881     358   0.2 Hōkūleʻa
        2019-08-19T03:34:00Z 2019-08-18T17:34:00-10:00 2019-08-18T16:34:00-11:00  21.26554 -157.88711     178   0.2 Hōkūleʻa
        2019-07-23T08:38:00Z 2019-07-22T22:38:00-10:00 2019-07-22T21:38:00-11:00  21.31377 -157.88845       4   0.2 Hōkūleʻa
        2019-07-22T20:22:00Z 2019-07-22T10:22:00-10:00 2019-07-22T09:22:00-11:00  21.26286 -157.89173     183   0.2 Hōkūleʻa
        2019-07-08T16:14:00Z 2019-07-08T06:14:00-10:00 2019-07-08T05:14:00-11:00  21.31389 -157.88408     336   0.4 Hōkūleʻa
        2019-07-08T04:10:00Z 2019-07-07T18:10:00-10:00 2019-07-07T17:10:00-11:00  21.23784 -157.84884     154   0.4 Hōkūleʻa
        2019-06-09T09:20:00Z 2019-06-08T23:20:00-10:00 2019-06-08T22:20:00-11:00  21.31280 -157.88906     298   0.8 Hōkūleʻa
        2019-06-08T21:18:00Z 2019-06-08T11:18:00-10:00 2019-06-08T10:18:00-11:00  21.23820 -157.73876     275   2.3 Hōkūleʻa
        2019-06-08T09:08:00Z 2019-06-07T23:08:00-10:00 2019-06-07T23:08:00-10:00  21.20211 -157.25179     302   2.9 Hōkūleʻa
        2019-06-07T21:04:00Z 2019-06-07T11:04:00-10:00 2019-06-07T11:04:00-10:00  20.89691 -156.72254     305   0.2 Hōkūleʻa
        2019-06-06T20:44:00Z 2019-06-06T10:44:00-10:00 2019-06-06T10:44:00-10:00  20.87431 -156.68694      54   1.3 Hōkūleʻa
        2019-06-06T08:42:00Z 2019-06-05T22:42:00-10:00 2019-06-05T22:42:00-10:00  20.72292 -156.91110     122   5.0 Hōkūleʻa
        2019-06-05T20:38:00Z 2019-06-05T10:38:00-10:00 2019-06-05T09:38:00-11:00  21.26104 -157.83074     134   0.4 Hōkūleʻa
        2019-06-02T07:50:00Z 2019-06-01T21:50:00-10:00 2019-06-01T20:50:00-11:00  21.31304 -157.88809     308   0.3 Hōkūleʻa
        2019-06-01T19:46:00Z 2019-06-01T09:46:00-10:00 2019-06-01T08:46:00-11:00  21.27234 -157.83171     127   0.3 Hōkūleʻa
        2019-05-08T13:20:00Z 2019-05-08T03:20:00-10:00 2019-05-08T02:20:00-11:00  21.31317 -157.88857     302   5.5 Hōkūleʻa
        2019-05-01T01:50:00Z 2019-04-30T15:50:00-10:00 2019-04-30T14:50:00-11:00  21.31317 -157.88857      43   0.0 Hikianalia
        2019-04-29T23:12:00Z 2019-04-29T13:12:00-10:00 2019-04-29T13:12:00-10:00  20.74224 -156.88838      54   0.2 Hōkūleʻa
        2019-04-29T11:06:00Z 2019-04-29T01:06:00-10:00 2019-04-29T01:06:00-10:00  20.71514 -156.92884     123   5.4 Hōkūleʻa
        2019-04-22T09:44:00Z 2019-04-21T23:44:00-10:00 2019-04-21T22:44:00-11:00  21.31304 -157.88881     296   0.3 Hōkūleʻa
        2019-04-19T08:42:00Z 2019-04-18T22:42:00-10:00 2019-04-18T21:42:00-11:00  21.28741 -157.84289     121   0.2 Hōkūleʻa
        2019-04-03T04:06:00Z 2019-04-02T18:06:00-10:00 2019-04-02T17:06:00-11:00  21.31317 -157.88845     203   0.1 Hōkūleʻa
        2019-04-02T16:04:00Z 2019-04-02T06:04:00-10:00 2019-04-02T05:04:00-11:00  21.32847 -157.88165      24   0.1 Hōkūleʻa
        2019-03-29T15:04:00Z 2019-03-29T05:04:00-10:00 2019-03-29T04:04:00-11:00  21.31329 -157.88954      25   0.1 Hōkūleʻa
        2019-03-29T02:58:00Z 2019-03-28T16:58:00-10:00 2019-03-28T15:58:00-11:00  21.29907 -157.89659     205   0.1 Hōkūleʻa
        2019-02-25T19:50:00Z 2019-02-25T09:50:00-10:00 2019-02-25T08:50:00-11:00  21.31317 -157.88869      42   0.1 Hōkūleʻa
        2019-02-25T07:30:00Z 2019-02-24T21:30:00-10:00 2019-02-24T20:30:00-11:00  21.30308 -157.89841     222   0.1 Hōkūleʻa
        2019-02-07T01:32:00Z 2019-02-06T15:32:00-10:00 2019-02-06T14:32:00-11:00  21.31329 -157.88857      93   0.3 Hōkūleʻa
        2019-02-06T13:24:00Z 2019-02-06T03:24:00-10:00 2019-02-06T02:24:00-11:00  21.31705 -157.95637     274   0.3 Hōkūleʻa
        2019-01-25T10:34:00Z 2019-01-25T00:34:00-10:00 2019-01-24T23:34:00-11:00  21.31329 -157.88869      10   0.4 Hōkūleʻa
        2019-01-24T22:30:00Z 2019-01-24T12:30:00-10:00 2019-01-24T11:30:00-11:00  21.23954 -157.90206     190   0.4 Hōkūleʻa
        2018-12-17T04:34:00Z 2018-12-16T18:34:00-10:00 2018-12-16T17:34:00-11:00  21.31292 -157.88881       0   0.0 Hikianalia
        2018-12-16T16:30:00Z 2018-12-16T06:30:00-10:00 2018-12-16T05:30:00-11:00  21.31292 -157.88881       0   0.0 Hikianalia
        2018-12-16T03:22:00Z 2018-12-15T17:22:00-10:00 2018-12-15T16:22:00-11:00  21.31292 -157.88881     180   0.0 Hikianalia
        2018-12-15T15:18:00Z 2018-12-15T05:18:00-10:00 2018-12-15T04:18:00-11:00  21.31304 -157.88881       0   0.0 Hikianalia
        2018-12-15T03:12:00Z 2018-12-14T17:12:00-10:00 2018-12-14T16:12:00-11:00  21.31292 -157.88881     180   0.0 Hikianalia
        2018-12-14T15:08:00Z 2018-12-14T05:08:00-10:00 2018-12-14T04:08:00-11:00  21.31304 -157.88881       0   0.0 Hikianalia
        2018-12-14T03:02:00Z 2018-12-13T17:02:00-10:00 2018-12-13T16:02:00-11:00  21.31292 -157.88881       0   0.0 Hikianalia
        2018-12-13T14:58:00Z 2018-12-13T04:58:00-10:00 2018-12-13T03:58:00-11:00  21.31292 -157.88881       0   0.0 Hikianalia
        2018-12-13T02:52:00Z 2018-12-12T16:52:00-10:00 2018-12-12T15:52:00-11:00  21.31292 -157.88881       0   0.0 Hikianalia
        2018-12-12T14:48:00Z 2018-12-12T04:48:00-10:00 2018-12-12T03:48:00-11:00  21.31292 -157.88881     124   2.2 Hikianalia
        2018-12-12T02:42:00Z 2018-12-11T16:42:00-10:00 2018-12-11T15:42:00-11:00  21.55945 -158.28576     223   4.3 Hikianalia
        2018-12-11T14:38:00Z 2018-12-11T04:38:00-10:00 2018-12-11T03:38:00-11:00  22.19331 -157.64703     268   7.2 Hikianalia
        2018-12-11T02:30:00Z 2018-12-10T16:30:00-10:00 2018-12-10T16:30:00-10:00  22.25880 -156.08976     256   6.6 Hikianalia
        2018-12-10T14:26:00Z 2018-12-10T04:26:00-10:00 2018-12-10T04:26:00-10:00  22.58904 -154.69907     250   6.8 Hikianalia
        2018-12-10T02:18:00Z 2018-12-09T16:18:00-10:00 2018-12-09T16:18:00-10:00  23.08257 -153.29842     248   6.3 Hikianalia
        2018-12-09T14:12:00Z 2018-12-09T04:12:00-10:00 2018-12-09T04:12:00-10:00  23.57003 -152.01490     258   6.7 Hikianalia
        2018-12-09T02:06:00Z 2018-12-08T16:06:00-10:00 2018-12-08T16:06:00-10:00  23.86090 -150.57719     257   5.6 Hikianalia
        2018-12-08T13:58:00Z 2018-12-08T03:58:00-10:00 2018-12-08T03:58:00-10:00  24.11933 -149.37251     257   3.8 Hikianalia
        2018-12-08T01:50:00Z 2018-12-07T15:50:00-10:00 2018-12-07T15:50:00-10:00  24.29137 -148.54643     267   3.6 Hikianalia
        2018-12-07T12:44:00Z 2018-12-07T02:44:00-10:00 2018-12-07T02:44:00-10:00  24.33852 -147.67807     261   4.9 Hikianalia
        2018-12-06T23:36:00Z 2018-12-06T13:36:00-10:00 2018-12-06T13:36:00-10:00  24.51396 -146.52650     264   3.6 Hikianalia
        2018-12-06T11:30:00Z 2018-12-06T01:30:00-10:00 2018-12-06T01:30:00-10:00  24.59160 -145.72508     262   5.8 Hikianalia
        2018-12-05T23:22:00Z 2018-12-05T13:22:00-10:00 2018-12-05T13:22:00-10:00  24.76109 -144.44860     256   6.1 Hikianalia
        2018-12-05T11:14:00Z 2018-12-05T01:14:00-10:00 2018-12-05T01:14:00-10:00  25.06496 -143.13993     249   6.5 Hikianalia
        2018-12-04T23:06:00Z 2018-12-04T13:06:00-10:00 2018-12-04T14:06:00-09:00  25.54562 -141.78787     244   6.9 Hikianalia
        2018-12-04T11:00:00Z 2018-12-04T01:00:00-10:00 2018-12-04T02:00:00-09:00  26.16114 -140.40192     246   7.2 Hikianalia
        2018-12-03T22:50:00Z 2018-12-03T12:50:00-10:00 2018-12-03T13:50:00-09:00  26.77520 -138.91914     240   3.7 Hikianalia
        2018-12-03T09:42:00Z 2018-12-02T23:42:00-10:00 2018-12-03T00:42:00-09:00  27.18635 -138.14166     267   4.2 Hikianalia
        2018-12-02T21:36:00Z 2018-12-02T11:36:00-10:00 2018-12-02T12:36:00-09:00  27.23593 -137.18339     255   5.2 Hikianalia
        2018-12-02T09:28:00Z 2018-12-01T23:28:00-10:00 2018-12-02T00:28:00-09:00  27.52036 -136.03485     259   5.7 Hikianalia
        2018-12-01T21:18:00Z 2018-12-01T11:18:00-10:00 2018-12-01T12:18:00-09:00  27.75388 -134.75764     256   4.2 Hikianalia
        2018-12-01T09:10:00Z 2018-11-30T23:10:00-10:00 2018-12-01T00:10:00-09:00  27.95800 -133.82513     259   4.1 Hikianalia
        2018-11-30T20:00:00Z 2018-11-30T10:00:00-10:00 2018-11-30T11:00:00-09:00  28.13077 -132.81655     258   4.2 Hikianalia
        2018-11-30T08:16:00Z 2018-11-29T22:16:00-10:00 2018-11-29T21:16:00-11:00  21.31280 -157.88845     133   2.1 Hōkūleʻa
        2018-11-30T06:50:00Z 2018-11-29T20:50:00-10:00 2018-11-29T21:50:00-09:00  28.32202 -131.78891     256   5.8 Hikianalia
        2018-11-29T20:10:00Z 2018-11-29T10:10:00-10:00 2018-11-29T09:10:00-11:00  21.60464 -158.22112     313   2.1 Hōkūleʻa
        2018-11-29T18:42:00Z 2018-11-29T08:42:00-10:00 2018-11-29T09:42:00-09:00  28.61908 -130.49323     242   5.4 Hikianalia
        2018-11-29T06:32:00Z 2018-11-28T20:32:00-10:00 2018-11-28T21:32:00-09:00  29.13084 -129.39851     286   2.6 Hikianalia
        2018-11-28T18:24:00Z 2018-11-28T08:24:00-10:00 2018-11-28T09:24:00-09:00  28.99002 -128.83159     259   1.7 Hikianalia
        2018-11-28T06:14:00Z 2018-11-27T20:14:00-10:00 2018-11-27T21:14:00-09:00  29.05514 -128.43745     249   2.4 Hikianalia
        2018-11-27T18:04:00Z 2018-11-27T08:04:00-10:00 2018-11-27T09:04:00-09:00  29.23217 -127.91573     259   5.2 Hikianalia
        2018-11-27T05:54:00Z 2018-11-26T19:54:00-10:00 2018-11-26T21:54:00-08:00  29.44273 -126.73098     252   6.4 Hikianalia
        2018-11-26T17:46:00Z 2018-11-26T07:46:00-10:00 2018-11-26T09:46:00-08:00  29.85133 -125.32049     257   7.3 Hikianalia
        2018-11-26T05:34:00Z 2018-11-25T19:34:00-10:00 2018-11-25T21:34:00-08:00  30.19907 -123.65095     251   8.0 Hikianalia
        2018-11-25T17:24:00Z 2018-11-25T07:24:00-10:00 2018-11-25T09:24:00-08:00  30.73634 -121.86891     251   6.9 Hikianalia
        2018-11-25T05:12:00Z 2018-11-24T19:12:00-10:00 2018-11-24T21:12:00-08:00  31.21056 -120.33388     239   5.9 Hikianalia
        2018-11-24T17:04:00Z 2018-11-24T07:04:00-10:00 2018-11-24T09:04:00-08:00  31.84090 -119.13577     245   5.8 Hikianalia
        2018-11-24T06:30:00Z 2018-11-23T20:30:00-10:00 2018-11-23T19:30:00-11:00  21.31402 -157.88930     218   0.7 Hōkūleʻa
        2018-11-24T04:52:00Z 2018-11-23T18:52:00-10:00 2018-11-23T20:52:00-08:00  32.35691 -117.87825     239   3.5 Hikianalia
        2018-11-23T16:46:00Z 2018-11-23T06:46:00-10:00 2018-11-23T08:46:00-08:00  32.72080 -117.17464     180   0.0 Hikianalia
        2018-11-23T04:34:00Z 2018-11-22T18:34:00-10:00 2018-11-22T20:34:00-08:00  32.72092 -117.17464       0   0.0 Hikianalia
        2018-11-22T16:24:00Z 2018-11-22T06:24:00-10:00 2018-11-22T08:24:00-08:00  32.72092 -117.17464       0   0.0 Hikianalia
        2018-11-22T04:14:00Z 2018-11-21T18:14:00-10:00 2018-11-21T20:14:00-08:00  32.72092 -117.17464     180   0.0 Hikianalia
        2018-11-21T16:08:00Z 2018-11-21T06:08:00-10:00 2018-11-21T08:08:00-08:00  32.72104 -117.17464       0   0.0 Hikianalia
        2018-11-21T03:54:00Z 2018-11-20T17:54:00-10:00 2018-11-20T19:54:00-08:00  32.72092 -117.17464     270   0.0 Hikianalia
        2018-11-20T15:46:00Z 2018-11-20T05:46:00-10:00 2018-11-20T07:46:00-08:00  32.72092 -117.17452      90   0.0 Hikianalia
        2018-11-20T03:34:00Z 2018-11-19T17:34:00-10:00 2018-11-19T19:34:00-08:00  32.72092 -117.17464     270   0.0 Hikianalia
        2018-11-19T15:24:00Z 2018-11-19T05:24:00-10:00 2018-11-19T07:24:00-08:00  32.72092 -117.17452      90   0.0 Hikianalia
        2018-11-19T03:10:00Z 2018-11-18T17:10:00-10:00 2018-11-18T19:10:00-08:00  32.72092 -117.17464     320   0.0 Hikianalia
        2018-11-18T15:04:00Z 2018-11-18T05:04:00-10:00 2018-11-18T07:04:00-08:00  32.72080 -117.17452     140   0.0 Hikianalia
        2018-11-18T02:50:00Z 2018-11-17T16:50:00-10:00 2018-11-17T18:50:00-08:00  32.72092 -117.17464     320   0.0 Hikianalia
        2018-11-17T14:44:00Z 2018-11-17T04:44:00-10:00 2018-11-17T06:44:00-08:00  32.72080 -117.17452      90   0.0 Hikianalia
        2018-11-17T02:42:00Z 2018-11-16T16:42:00-10:00 2018-11-16T18:42:00-08:00  32.72080 -117.17464     220   0.0 Hikianalia
        2018-11-16T14:38:00Z 2018-11-16T04:38:00-10:00 2018-11-16T06:38:00-08:00  32.72092 -117.17452      90   0.0 Hikianalia
        2018-11-16T03:42:00Z 2018-11-15T17:42:00-10:00 2018-11-15T16:42:00-11:00  21.43272 -157.78931      38   0.8 Hōkūleʻa
        2018-11-16T02:34:00Z 2018-11-15T16:34:00-10:00 2018-11-15T18:34:00-08:00  32.72092 -117.17464     300   0.0 Hikianalia
        2018-11-15T14:30:00Z 2018-11-15T04:30:00-10:00 2018-11-15T06:30:00-08:00  32.72080 -117.17440     120   0.0 Hikianalia
        2018-11-15T02:28:00Z 2018-11-14T16:28:00-10:00 2018-11-14T18:28:00-08:00  32.72092 -117.17464       0   0.0 Hikianalia
        2018-11-14T14:22:00Z 2018-11-14T04:22:00-10:00 2018-11-14T06:22:00-08:00  32.72080 -117.17464     220   0.0 Hikianalia
        2018-11-14T02:20:00Z 2018-11-13T16:20:00-10:00 2018-11-13T18:20:00-08:00  32.72092 -117.17452     300   0.0 Hikianalia
        2018-11-13T14:14:00Z 2018-11-13T04:14:00-10:00 2018-11-13T06:14:00-08:00  32.72080 -117.17427     111   0.0 Hikianalia
        2018-11-13T02:12:00Z 2018-11-12T16:12:00-10:00 2018-11-12T18:12:00-08:00  32.72092 -117.17464     300   0.0 Hikianalia
        2018-11-12T14:08:00Z 2018-11-12T04:08:00-10:00 2018-11-12T06:08:00-08:00  32.72080 -117.17440     120   0.0 Hikianalia
        2018-11-12T02:04:00Z 2018-11-11T16:04:00-10:00 2018-11-11T18:04:00-08:00  32.72092 -117.17464       0   0.0 Hikianalia
        2018-11-11T14:00:00Z 2018-11-11T04:00:00-10:00 2018-11-11T06:00:00-08:00  32.72080 -117.17464     180   0.0 Hikianalia
        2018-11-11T01:58:00Z 2018-11-10T15:58:00-10:00 2018-11-10T17:58:00-08:00  32.72092 -117.17464     270   0.0 Hikianalia
        2018-11-10T13:52:00Z 2018-11-10T03:52:00-10:00 2018-11-10T05:52:00-08:00  32.72092 -117.17452      90   0.0 Hikianalia
        2018-11-10T01:50:00Z 2018-11-09T15:50:00-10:00 2018-11-09T17:50:00-08:00  32.72092 -117.17464       0   0.0 Hikianalia
        2018-11-09T13:46:00Z 2018-11-09T03:46:00-10:00 2018-11-09T05:46:00-08:00  32.72092 -117.17464     320   0.0 Hikianalia
        2018-11-09T01:42:00Z 2018-11-08T15:42:00-10:00 2018-11-08T17:42:00-08:00  32.72080 -117.17452     157   0.0 Hikianalia
        2018-11-08T13:38:00Z 2018-11-08T03:38:00-10:00 2018-11-08T05:38:00-08:00  32.72104 -117.17464     337   0.0 Hikianalia
        2018-11-08T01:34:00Z 2018-11-07T15:34:00-10:00 2018-11-07T17:34:00-08:00  32.72080 -117.17452     140   0.0 Hikianalia
        2018-11-07T13:28:00Z 2018-11-07T03:28:00-10:00 2018-11-07T05:28:00-08:00  32.72092 -117.17464       0   0.0 Hikianalia
        2018-11-07T01:26:00Z 2018-11-06T15:26:00-10:00 2018-11-06T17:26:00-08:00  32.72092 -117.17464       0   0.0 Hikianalia
        2018-11-06T13:20:00Z 2018-11-06T03:20:00-10:00 2018-11-06T05:20:00-08:00  32.72092 -117.17464       0   0.0 Hikianalia
        2018-11-06T01:18:00Z 2018-11-05T15:18:00-10:00 2018-11-05T17:18:00-08:00  32.72080 -117.17464     239   0.0 Hikianalia
        2018-11-05T13:14:00Z 2018-11-05T03:14:00-10:00 2018-11-05T05:14:00-08:00  32.72116 -117.17391     220   0.0 Hikianalia
        2018-11-05T01:16:00Z 2018-11-04T15:16:00-10:00 2018-11-04T14:16:00-11:00  21.31341 -157.88906     334   0.3 Hōkūleʻa
        2018-11-05T01:10:00Z 2018-11-04T15:10:00-10:00 2018-11-04T17:10:00-08:00  32.72129 -117.17379      23   0.0 Hikianalia
        2018-11-04T13:08:00Z 2018-11-04T03:08:00-10:00 2018-11-04T02:08:00-11:00  21.25023 -157.85686     155   0.3 Hōkūleʻa
        2018-11-04T12:04:00Z 2018-11-04T02:04:00-10:00 2018-11-04T04:04:00-08:00  32.72104 -117.17391     180   0.0 Hikianalia
        2018-11-04T00:02:00Z 2018-11-03T14:02:00-10:00 2018-11-03T16:02:00-08:00  32.72116 -117.17391       0   0.0 Hikianalia
        2018-11-03T11:56:00Z 2018-11-03T01:56:00-10:00 2018-11-03T03:56:00-08:00  32.72116 -117.17391       0   0.0 Hikianalia
        2018-11-02T23:54:00Z 2018-11-02T13:54:00-10:00 2018-11-02T15:54:00-08:00  32.72116 -117.17391       0   0.0 Hikianalia
        2018-11-02T12:42:00Z 2018-11-02T02:42:00-10:00 2018-11-02T01:42:00-11:00  21.31365 -157.88845     144   0.1 Hōkūleʻa
        2018-11-02T11:48:00Z 2018-11-02T01:48:00-10:00 2018-11-02T03:48:00-08:00  32.72116 -117.17391     140   0.0 Hikianalia
        2018-11-02T00:34:00Z 2018-11-01T14:34:00-10:00 2018-11-01T13:34:00-11:00  21.32410 -157.89671     325   0.1 Hōkūleʻa
        2018-11-01T23:46:00Z 2018-11-01T13:46:00-10:00 2018-11-01T15:46:00-08:00  32.72129 -117.17403     320   0.0 Hikianalia
        2018-11-01T11:40:00Z 2018-11-01T01:40:00-10:00 2018-11-01T03:40:00-08:00  32.72116 -117.17391       0   0.0 Hikianalia
        2018-10-31T23:36:00Z 2018-10-31T13:36:00-10:00 2018-10-31T15:36:00-08:00  32.72116 -117.17391     140   0.0 Hikianalia
        2018-10-31T11:34:00Z 2018-10-31T01:34:00-10:00 2018-10-31T03:34:00-08:00  32.72129 -117.17403      90   0.0 Hikianalia
        2018-10-30T23:28:00Z 2018-10-30T13:28:00-10:00 2018-10-30T15:28:00-08:00  32.72129 -117.17488     134   1.2 Hikianalia
        2018-10-30T11:24:00Z 2018-10-30T01:24:00-10:00 2018-10-30T03:24:00-08:00  32.89297 -117.38471     156   2.8 Hikianalia
        2018-10-29T23:20:00Z 2018-10-29T13:20:00-10:00 2018-10-29T15:20:00-08:00  33.40521 -117.65626     143   0.3 Hikianalia
        2018-10-29T11:16:00Z 2018-10-29T01:16:00-10:00 2018-10-29T03:16:00-08:00  33.46110 -117.70608       0   0.0 Hikianalia
        2018-10-28T23:12:00Z 2018-10-28T13:12:00-10:00 2018-10-28T15:12:00-08:00  33.46110 -117.70608       0   0.0 Hikianalia
        2018-10-28T11:08:00Z 2018-10-28T01:08:00-10:00 2018-10-28T03:08:00-08:00  33.46110 -117.70608      90   0.0 Hikianalia
        2018-10-27T22:04:00Z 2018-10-27T12:04:00-10:00 2018-10-27T14:04:00-08:00  33.46110 -117.70620     180   0.0 Hikianalia
        2018-10-27T09:58:00Z 2018-10-26T23:58:00-10:00 2018-10-27T01:58:00-08:00  33.46122 -117.70620     320   0.0 Hikianalia
        2018-10-26T21:54:00Z 2018-10-26T11:54:00-10:00 2018-10-26T13:54:00-08:00  33.46110 -117.70608       0   0.0 Hikianalia
        2018-10-26T09:50:00Z 2018-10-25T23:50:00-10:00 2018-10-26T01:50:00-08:00  33.46110 -117.70608       0   0.0 Hikianalia
        2018-10-25T21:46:00Z 2018-10-25T11:46:00-10:00 2018-10-25T13:46:00-08:00  33.46110 -117.70608     140   0.0 Hikianalia
        2018-10-25T09:36:00Z 2018-10-24T23:36:00-10:00 2018-10-25T01:36:00-08:00  33.46122 -117.70620     320   0.0 Hikianalia
        2018-10-24T20:26:00Z 2018-10-24T10:26:00-10:00 2018-10-24T12:26:00-08:00  33.46110 -117.70608       0   0.0 Hikianalia
        2018-10-24T08:16:00Z 2018-10-23T22:16:00-10:00 2018-10-24T00:16:00-08:00  33.46110 -117.70608      81   1.2 Hikianalia
        2018-10-23T20:06:00Z 2018-10-23T10:06:00-10:00 2018-10-23T12:06:00-08:00  33.42319 -118.00181      74   1.4 Hikianalia
        2018-10-23T07:56:00Z 2018-10-22T21:56:00-10:00 2018-10-22T23:56:00-08:00  33.34665 -118.32306     151   0.6 Hikianalia
        2018-10-22T19:44:00Z 2018-10-22T09:44:00-10:00 2018-10-22T11:44:00-08:00  33.46001 -118.39863     180   1.9 Hikianalia
        2018-10-22T07:40:00Z 2018-10-21T21:40:00-10:00 2018-10-21T23:40:00-08:00  33.84869 -118.40082     239   0.0 Hikianalia
        2018-10-21T19:36:00Z 2018-10-21T09:36:00-10:00 2018-10-21T11:36:00-08:00  33.84881 -118.40057      90   0.0 Hikianalia
        2018-10-21T07:32:00Z 2018-10-20T21:32:00-10:00 2018-10-20T23:32:00-08:00  33.84881 -118.40069     180   0.0 Hikianalia
        2018-10-20T19:28:00Z 2018-10-20T09:28:00-10:00 2018-10-20T11:28:00-08:00  33.84893 -118.40069       0   0.0 Hikianalia
        2018-10-20T07:24:00Z 2018-10-19T21:24:00-10:00 2018-10-19T23:24:00-08:00  33.84881 -118.40069       0   0.0 Hikianalia
        2018-10-19T19:20:00Z 2018-10-19T09:20:00-10:00 2018-10-19T11:20:00-08:00  33.84881 -118.40069       0   0.0 Hikianalia
        2018-10-19T07:16:00Z 2018-10-18T21:16:00-10:00 2018-10-18T23:16:00-08:00  33.84881 -118.40069     180   0.0 Hikianalia
        2018-10-18T19:12:00Z 2018-10-18T09:12:00-10:00 2018-10-18T11:12:00-08:00  33.84893 -118.40069       0   0.0 Hikianalia
        2018-10-18T07:08:00Z 2018-10-17T21:08:00-10:00 2018-10-17T23:08:00-08:00  33.84881 -118.40069      63   0.4 Hikianalia
        2018-10-17T18:04:00Z 2018-10-17T08:04:00-10:00 2018-10-17T10:04:00-08:00  33.80920 -118.49267     115   1.4 Hikianalia
        2018-10-17T06:00:00Z 2018-10-16T20:00:00-10:00 2018-10-16T22:00:00-08:00  33.92705 -118.79618     124   2.1 Hikianalia
        2018-10-16T17:56:00Z 2018-10-16T07:56:00-10:00 2018-10-16T09:56:00-08:00  34.16507 -119.22580      90   0.0 Hikianalia
        2018-10-16T05:52:00Z 2018-10-15T19:52:00-10:00 2018-10-15T21:52:00-08:00  34.16507 -119.22592     270   0.0 Hikianalia
        2018-10-15T17:48:00Z 2018-10-15T07:48:00-10:00 2018-10-15T09:48:00-08:00  34.16507 -119.22580     180   0.0 Hikianalia
        2018-10-15T05:44:00Z 2018-10-14T19:44:00-10:00 2018-10-14T21:44:00-08:00  34.16519 -119.22580       0   0.0 Hikianalia
        2018-10-14T17:40:00Z 2018-10-14T07:40:00-10:00 2018-10-14T09:40:00-08:00  34.16519 -119.22580      40   0.0 Hikianalia
        2018-10-14T05:36:00Z 2018-10-13T19:36:00-10:00 2018-10-13T21:36:00-08:00  34.16507 -119.22592     270   0.0 Hikianalia
        2018-10-13T17:30:00Z 2018-10-13T07:30:00-10:00 2018-10-13T09:30:00-08:00  34.16507 -119.22580     140   0.0 Hikianalia
        2018-10-13T05:28:00Z 2018-10-12T19:28:00-10:00 2018-10-12T21:28:00-08:00  34.16519 -119.22592     320   0.0 Hikianalia
        2018-10-12T17:22:00Z 2018-10-12T07:22:00-10:00 2018-10-12T09:22:00-08:00  34.16507 -119.22580       0   0.0 Hikianalia
        2018-10-12T06:36:00Z 2018-10-11T20:36:00-10:00 2018-10-11T19:36:00-11:00  21.31256 -157.88869     322   0.5 Hōkūleʻa
        2018-10-12T05:20:00Z 2018-10-11T19:20:00-10:00 2018-10-11T21:20:00-08:00  34.16507 -119.22580      90   0.0 Hikianalia
        2018-10-11T18:20:00Z 2018-10-11T08:20:00-10:00 2018-10-11T07:20:00-11:00  21.23322 -157.82248     142   0.5 Hōkūleʻa
        2018-10-11T17:14:00Z 2018-10-11T07:14:00-10:00 2018-10-11T09:14:00-08:00  34.16507 -119.22592       0   0.0 Hikianalia
        2018-10-11T05:12:00Z 2018-10-10T19:12:00-10:00 2018-10-10T21:12:00-08:00  34.16507 -119.22592     158   0.4 Hikianalia
        2018-10-10T17:06:00Z 2018-10-10T07:06:00-10:00 2018-10-10T09:06:00-08:00  34.24125 -119.26383       0   0.0 Hikianalia
        2018-10-10T05:04:00Z 2018-10-09T19:04:00-10:00 2018-10-09T21:04:00-08:00  34.24125 -119.26383       0   0.0 Hikianalia
        2018-10-09T16:58:00Z 2018-10-09T06:58:00-10:00 2018-10-09T08:58:00-08:00  34.24125 -119.26383     270   0.0 Hikianalia
        2018-10-09T04:54:00Z 2018-10-08T18:54:00-10:00 2018-10-08T20:54:00-08:00  34.24125 -119.26371       0   0.0 Hikianalia
        2018-10-08T16:50:00Z 2018-10-08T06:50:00-10:00 2018-10-08T08:50:00-08:00  34.24125 -119.26371       0   0.0 Hikianalia
        2018-10-08T04:48:00Z 2018-10-07T18:48:00-10:00 2018-10-07T20:48:00-08:00  34.24125 -119.26371      90   0.0 Hikianalia
        2018-10-07T17:16:00Z 2018-10-07T07:16:00-10:00 2018-10-07T06:16:00-11:00  21.31304 -157.88906     292   6.0 Hōkūleʻa
        2018-10-07T16:42:00Z 2018-10-07T06:42:00-10:00 2018-10-07T08:42:00-08:00  34.24125 -119.26383     115   1.6 Hikianalia
        2018-10-07T05:10:00Z 2018-10-06T19:10:00-10:00 2018-10-06T19:10:00-10:00  20.87054 -156.68487     303   4.3 Hōkūleʻa
        2018-10-07T04:40:00Z 2018-10-06T18:40:00-10:00 2018-10-06T20:40:00-08:00  34.38244 -119.62019      93   2.4 Hikianalia
        2018-10-06T16:54:00Z 2018-10-06T06:54:00-10:00 2018-10-06T06:54:00-10:00  20.38819 -155.89026       9   2.8 Hōkūleʻa
        2018-10-06T16:34:00Z 2018-10-06T06:34:00-10:00 2018-10-06T08:34:00-08:00  34.40661 -120.20072     131   3.5 Hikianalia
        2018-10-06T04:32:00Z 2018-10-05T18:32:00-10:00 2018-10-05T20:32:00-08:00  34.86904 -120.83045     146   4.7 Hikianalia
        2018-10-05T16:28:00Z 2018-10-05T06:28:00-10:00 2018-10-05T08:28:00-08:00  35.65503 -121.46650     146   5.0 Hikianalia
        2018-10-05T04:24:00Z 2018-10-04T18:24:00-10:00 2018-10-04T20:24:00-08:00  36.48912 -122.14496     240   1.2 Hikianalia
        2018-10-04T16:36:00Z 2018-10-04T06:36:00-10:00 2018-10-04T06:36:00-10:00  19.83305 -155.98770     150   3.5 Hōkūleʻa
        2018-10-04T16:20:00Z 2018-10-04T06:20:00-10:00 2018-10-04T08:20:00-08:00  36.60540 -121.89261       0   0.0 Hikianalia
        2018-10-04T04:28:00Z 2018-10-03T18:28:00-10:00 2018-10-03T18:28:00-10:00  20.44007 -156.36314     162   1.3 Hōkūleʻa
        2018-10-04T04:16:00Z 2018-10-03T18:16:00-10:00 2018-10-03T20:16:00-08:00  36.60540 -121.89261       0   0.0 Hikianalia
        2018-10-03T16:12:00Z 2018-10-03T06:12:00-10:00 2018-10-03T08:12:00-08:00  36.60540 -121.89261     270   0.0 Hikianalia
        2018-10-03T04:18:00Z 2018-10-02T18:18:00-10:00 2018-10-02T18:18:00-10:00  20.68465 -156.44552      21   0.2 Hōkūleʻa
        2018-10-03T04:08:00Z 2018-10-02T18:08:00-10:00 2018-10-02T20:08:00-08:00  36.60540 -121.89248       0   0.0 Hikianalia
        2018-10-02T16:10:00Z 2018-10-02T06:10:00-10:00 2018-10-02T06:10:00-10:00  20.65135 -156.45900     121   4.0 Hōkūleʻa
        2018-10-02T16:02:00Z 2018-10-02T06:02:00-10:00 2018-10-02T08:02:00-08:00  36.60540 -121.89248      90   0.0 Hikianalia
        2018-10-02T04:02:00Z 2018-10-01T18:02:00-10:00 2018-10-01T18:02:00-10:00  21.07818 -157.20635     110   3.3 Hōkūleʻa
        2018-10-02T04:00:00Z 2018-10-01T18:00:00-10:00 2018-10-01T20:00:00-08:00  36.60540 -121.89261       0   0.0 Hikianalia
        2018-10-01T15:54:00Z 2018-10-01T05:54:00-10:00 2018-10-01T07:54:00-08:00  36.60540 -121.89261       0   0.0 Hikianalia
        2018-10-01T03:52:00Z 2018-09-30T17:52:00-10:00 2018-09-30T19:52:00-08:00  36.60540 -121.89261       0   0.0 Hikianalia
        2018-09-30T15:48:00Z 2018-09-30T05:48:00-10:00 2018-09-30T07:48:00-08:00  36.60528 -121.89261       0   0.0 Hikianalia
        2018-09-30T03:44:00Z 2018-09-29T17:44:00-10:00 2018-09-29T19:44:00-08:00  36.60528 -121.89261       0   0.0 Hikianalia
        2018-09-29T15:40:00Z 2018-09-29T05:40:00-10:00 2018-09-29T07:40:00-08:00  36.60528 -121.89261     180   0.0 Hikianalia
        2018-09-29T03:36:00Z 2018-09-28T17:36:00-10:00 2018-09-28T19:36:00-08:00  36.60540 -121.89261       0   0.0 Hikianalia
        2018-09-28T14:32:00Z 2018-09-28T04:32:00-10:00 2018-09-28T06:32:00-08:00  36.60528 -121.89261     270   0.0 Hikianalia
        2018-09-28T02:28:00Z 2018-09-27T16:28:00-10:00 2018-09-27T18:28:00-08:00  36.60528 -121.89248     281   0.0 Hikianalia
        2018-09-27T14:24:00Z 2018-09-27T04:24:00-10:00 2018-09-27T06:24:00-08:00  36.60443 -121.88702     124   1.3 Hikianalia
        2018-09-27T02:20:00Z 2018-09-26T16:20:00-10:00 2018-09-26T18:20:00-08:00  36.75156 -122.15286     153   3.1 Hikianalia
        2018-09-26T14:16:00Z 2018-09-26T04:16:00-10:00 2018-09-26T06:16:00-08:00  37.31824 -122.50715     187   0.9 Hikianalia
        2018-09-26T02:14:00Z 2018-09-25T16:14:00-10:00 2018-09-25T18:14:00-08:00  37.50122 -122.48042     270   0.0 Hikianalia
        2018-09-25T14:10:00Z 2018-09-25T04:10:00-10:00 2018-09-25T06:10:00-08:00  37.50122 -122.48018      39   0.0 Hikianalia
        2018-09-25T02:06:00Z 2018-09-24T16:06:00-10:00 2018-09-24T18:06:00-08:00  37.50110 -122.48030     180   0.0 Hikianalia
        2018-09-24T14:02:00Z 2018-09-24T04:02:00-10:00 2018-09-24T06:02:00-08:00  37.50122 -122.48030      60   0.1 Hikianalia
        2018-09-24T02:00:00Z 2018-09-23T16:00:00-10:00 2018-09-23T18:00:00-08:00  37.48785 -122.50898     181   1.9 Hikianalia
        2018-09-23T13:56:00Z 2018-09-23T03:56:00-10:00 2018-09-23T05:56:00-08:00  37.86827 -122.49707       0   0.0 Hikianalia
        2018-09-23T01:52:00Z 2018-09-22T15:52:00-10:00 2018-09-22T17:52:00-08:00  37.86827 -122.49707     320   0.0 Hikianalia
        2018-09-22T13:48:00Z 2018-09-22T03:48:00-10:00 2018-09-22T05:48:00-08:00  37.86499 -122.49354     322   0.0 Hikianalia
        2018-09-22T01:44:00Z 2018-09-21T15:44:00-10:00 2018-09-21T17:44:00-08:00  37.86487 -122.49342     142   0.0 Hikianalia
        2018-09-21T13:40:00Z 2018-09-21T03:40:00-10:00 2018-09-21T05:40:00-08:00  37.86499 -122.49354     270   0.0 Hikianalia
        2018-09-21T01:38:00Z 2018-09-20T15:38:00-10:00 2018-09-20T17:38:00-08:00  37.86499 -122.49330     142   0.0 Hikianalia
        2018-09-20T13:32:00Z 2018-09-20T03:32:00-10:00 2018-09-20T05:32:00-08:00  37.86511 -122.49342       0   0.0 Hikianalia
        2018-09-20T01:30:00Z 2018-09-19T15:30:00-10:00 2018-09-19T17:30:00-08:00  37.86499 -122.49342     314   0.4 Hikianalia
        2018-09-19T13:26:00Z 2018-09-19T03:26:00-10:00 2018-09-19T05:26:00-08:00  37.81043 -122.42271     270   0.0 Hikianalia
        2018-09-19T01:22:00Z 2018-09-18T15:22:00-10:00 2018-09-18T17:22:00-08:00  37.81043 -122.42259      39   0.0 Hikianalia
        2018-09-18T13:18:00Z 2018-09-18T03:18:00-10:00 2018-09-18T05:18:00-08:00  37.81031 -122.42271     180   0.0 Hikianalia
        2018-09-18T01:14:00Z 2018-09-17T15:14:00-10:00 2018-09-17T17:14:00-08:00  37.81043 -122.42271       0   0.0 Hikianalia
        2018-09-17T13:10:00Z 2018-09-17T03:10:00-10:00 2018-09-17T05:10:00-08:00  37.81043 -122.42271     180   0.0 Hikianalia
        2018-09-17T12:22:00Z 2018-09-17T02:22:00-10:00 2018-09-17T01:22:00-11:00  21.31292 -157.88857     240   0.1 Hōkūleʻa
        2018-09-17T01:08:00Z 2018-09-16T15:08:00-10:00 2018-09-16T17:08:00-08:00  37.81056 -122.42271     118   0.2 Hikianalia
        2018-09-17T00:14:00Z 2018-09-16T14:14:00-10:00 2018-09-16T13:14:00-11:00  21.32568 -157.86464      58   0.1 Hōkūleʻa
        2018-09-16T13:04:00Z 2018-09-16T03:04:00-10:00 2018-09-16T05:04:00-08:00  37.83303 -122.47483     180   0.0 Hikianalia
        2018-09-16T01:00:00Z 2018-09-15T15:00:00-10:00 2018-09-15T17:00:00-08:00  37.83316 -122.47483     202   0.0 Hikianalia
        2018-09-15T12:56:00Z 2018-09-15T02:56:00-10:00 2018-09-15T04:56:00-08:00  37.83340 -122.47471       0   0.0 Hikianalia
        2018-09-15T00:52:00Z 2018-09-14T14:52:00-10:00 2018-09-14T16:52:00-08:00  37.83340 -122.47471       0   0.0 Hikianalia
        2018-09-14T12:48:00Z 2018-09-14T02:48:00-10:00 2018-09-14T04:48:00-08:00  37.83328 -122.47471     180   0.0 Hikianalia
        2018-09-14T00:46:00Z 2018-09-13T14:46:00-10:00 2018-09-13T16:46:00-08:00  37.83340 -122.47471       2   1.7 Hikianalia
        2018-09-13T12:42:00Z 2018-09-13T02:42:00-10:00 2018-09-13T04:42:00-08:00  37.50122 -122.49111     180   0.0 Hikianalia
        2018-09-13T00:38:00Z 2018-09-12T14:38:00-10:00 2018-09-12T16:38:00-08:00  37.50134 -122.49111      22   0.0 Hikianalia
        2018-09-12T12:34:00Z 2018-09-12T02:34:00-10:00 2018-09-12T04:34:00-08:00  37.50110 -122.49124       0   0.0 Hikianalia
        2018-09-12T00:30:00Z 2018-09-11T14:30:00-10:00 2018-09-11T16:30:00-08:00  37.50110 -122.49124       0   0.0 Hikianalia
        2018-09-11T12:26:00Z 2018-09-11T02:26:00-10:00 2018-09-11T04:26:00-08:00  37.50110 -122.49124       0   0.0 Hikianalia
        2018-09-11T00:24:00Z 2018-09-10T14:24:00-10:00 2018-09-10T16:24:00-08:00  37.50110 -122.49124      93   0.6 Hikianalia
        2018-09-10T12:20:00Z 2018-09-10T02:20:00-10:00 2018-09-10T04:20:00-08:00  37.50839 -122.64615      98   5.9 Hikianalia
        2018-09-10T00:16:00Z 2018-09-09T14:16:00-10:00 2018-09-09T16:16:00-08:00  37.67764 -124.11156     115   7.0 Hikianalia
        2018-09-09T12:12:00Z 2018-09-09T02:12:00-10:00 2018-09-09T04:12:00-08:00  38.28222 -125.72715     114   6.7 Hikianalia
        2018-09-09T00:08:00Z 2018-09-08T14:08:00-10:00 2018-09-08T16:08:00-08:00  38.84063 -127.27858     111   5.2 Hikianalia
        2018-09-08T12:04:00Z 2018-09-08T02:04:00-10:00 2018-09-08T03:04:00-09:00  39.22530 -128.51290     109   3.3 Hikianalia
        2018-09-08T00:00:00Z 2018-09-07T14:00:00-10:00 2018-09-07T15:00:00-09:00  39.44084 -129.31662     132   5.5 Hikianalia
        2018-09-07T11:56:00Z 2018-09-07T01:56:00-10:00 2018-09-07T02:56:00-09:00  40.18442 -130.39494     125   5.1 Hikianalia
        2018-09-06T23:52:00Z 2018-09-06T13:52:00-10:00 2018-09-06T14:52:00-09:00  40.78743 -131.48989     112   5.6 Hikianalia
        2018-09-06T11:48:00Z 2018-09-06T01:48:00-10:00 2018-09-06T02:48:00-09:00  41.21171 -132.88071      88   4.9 Hikianalia
        2018-09-05T23:44:00Z 2018-09-05T13:44:00-10:00 2018-09-05T14:44:00-09:00  41.19409 -134.17286      91   4.7 Hikianalia
        2018-09-05T11:40:00Z 2018-09-05T01:40:00-10:00 2018-09-05T02:40:00-09:00  41.22446 -135.43500      97   4.0 Hikianalia
        2018-09-04T23:36:00Z 2018-09-04T13:36:00-10:00 2018-09-04T14:36:00-09:00  41.33406 -136.49788      91   3.2 Hikianalia
        2018-09-04T11:32:00Z 2018-09-04T01:32:00-10:00 2018-09-04T02:32:00-09:00  41.35168 -137.36284     103   2.8 Hikianalia
        2018-09-03T23:28:00Z 2018-09-03T13:28:00-10:00 2018-09-03T14:28:00-09:00  41.48508 -138.09877      95   3.3 Hikianalia
        2018-09-03T11:24:00Z 2018-09-03T01:24:00-10:00 2018-09-03T02:24:00-09:00  41.54850 -138.97904      91   3.0 Hikianalia
        2018-09-02T23:20:00Z 2018-09-02T13:20:00-10:00 2018-09-02T14:20:00-09:00  41.56163 -139.78859      86   2.5 Hikianalia
        2018-09-02T11:16:00Z 2018-09-02T01:16:00-10:00 2018-09-02T02:16:00-09:00  41.52566 -140.45672      94   2.6 Hikianalia
        2018-09-01T23:12:00Z 2018-09-01T13:12:00-10:00 2018-09-01T14:12:00-09:00  41.56394 -141.13943      88   2.6 Hikianalia
        2018-09-01T11:08:00Z 2018-09-01T01:08:00-10:00 2018-09-01T02:08:00-09:00  41.54413 -141.82991      94   2.1 Hikianalia
        2018-08-31T23:04:00Z 2018-08-31T13:04:00-10:00 2018-08-31T14:04:00-09:00  41.57280 -142.40388     121   2.9 Hikianalia
        2018-08-31T11:00:00Z 2018-08-31T01:00:00-10:00 2018-08-31T01:00:00-10:00  41.87826 -143.07808     124   4.5 Hikianalia
        2018-08-30T22:56:00Z 2018-08-30T12:56:00-10:00 2018-08-30T12:56:00-10:00  42.38698 -144.08143      82   6.7 Hikianalia
        2018-08-30T10:52:00Z 2018-08-30T00:52:00-10:00 2018-08-30T00:52:00-10:00  42.22234 -145.89117     109   7.1 Hikianalia
        2018-08-29T22:48:00Z 2018-08-29T12:48:00-10:00 2018-08-29T12:48:00-10:00  42.71515 -147.71452      96   7.4 Hikianalia
        2018-08-29T10:44:00Z 2018-08-29T00:44:00-10:00 2018-08-29T00:44:00-10:00  42.88233 -149.72474      83   4.2 Hikianalia
        2018-08-28T22:40:00Z 2018-08-28T12:40:00-10:00 2018-08-28T12:40:00-10:00  42.79181 -150.85724      87   2.2 Hikianalia
        2018-08-28T10:36:00Z 2018-08-28T00:36:00-10:00 2018-08-28T00:36:00-10:00  42.77067 -151.46450      16   3.6 Hikianalia
        2018-08-27T22:32:00Z 2018-08-27T12:32:00-10:00 2018-08-27T12:32:00-10:00  42.07606 -151.72536      23   5.7 Hikianalia
        2018-08-27T10:28:00Z 2018-08-27T00:28:00-10:00 2018-08-27T00:28:00-10:00  41.02715 -152.31646      14   6.3 Hikianalia
        2018-08-26T22:24:00Z 2018-08-26T12:24:00-10:00 2018-08-26T12:24:00-10:00  39.80534 -152.72883      18   6.3 Hikianalia
        2018-08-26T10:20:00Z 2018-08-26T00:20:00-10:00 2018-08-26T00:20:00-10:00  38.59204 -153.24569      28   6.7 Hikianalia
        2018-08-25T22:16:00Z 2018-08-25T12:16:00-10:00 2018-08-25T12:16:00-10:00  37.40560 -154.06873      18   6.0 Hikianalia
        2018-08-25T10:12:00Z 2018-08-25T00:12:00-10:00 2018-08-25T00:12:00-10:00  36.24612 -154.52788       6   5.0 Hikianalia
        2018-08-24T22:08:00Z 2018-08-24T12:08:00-10:00 2018-08-24T12:08:00-10:00  35.24435 -154.65023       6   3.6 Hikianalia
        2018-08-24T10:04:00Z 2018-08-24T00:04:00-10:00 2018-08-24T00:04:00-10:00  34.51949 -154.75132       1   5.9 Hikianalia
        2018-08-23T21:58:00Z 2018-08-23T11:58:00-10:00 2018-08-23T11:58:00-10:00  33.33753 -154.76821       3   5.6 Hikianalia
        2018-08-23T09:54:00Z 2018-08-22T23:54:00-10:00 2018-08-22T23:54:00-10:00  32.21427 -154.84815       8   6.6 Hikianalia
        2018-08-22T21:50:00Z 2018-08-22T11:50:00-10:00 2018-08-22T11:50:00-10:00  30.89089 -155.06406     358   6.7 Hikianalia
        2018-08-22T09:44:00Z 2018-08-21T23:44:00-10:00 2018-08-21T23:44:00-10:00  29.54443 -155.00793       8   6.1 Hikianalia
        2018-08-22T04:22:00Z 2018-08-21T18:22:00-10:00 2018-08-21T17:22:00-11:00  21.31304 -157.88869     329   0.7 Hōkūleʻa
        2018-08-21T21:40:00Z 2018-08-21T11:40:00-10:00 2018-08-21T11:40:00-10:00  28.32420 -155.19091       9   5.9 Hikianalia
        2018-08-21T16:18:00Z 2018-08-21T06:18:00-10:00 2018-08-21T05:18:00-11:00  21.18401 -157.80474     190   0.3 Hōkūleʻa
        2018-08-21T09:36:00Z 2018-08-20T23:36:00-10:00 2018-08-20T23:36:00-10:00  27.15780 -155.39478      13   6.7 Hikianalia
        2018-08-21T04:14:00Z 2018-08-20T18:14:00-10:00 2018-08-20T17:14:00-11:00  21.25096 -157.79198     124   0.5 Hōkūleʻa
        2018-08-20T21:32:00Z 2018-08-20T11:32:00-10:00 2018-08-20T11:32:00-10:00  25.84524 -155.73413      10   6.8 Hikianalia
        2018-08-20T09:26:00Z 2018-08-19T23:26:00-10:00 2018-08-19T23:26:00-10:00  24.48310 -155.98673      21   6.4 Hikianalia
        2018-08-19T21:22:00Z 2018-08-19T11:22:00-10:00 2018-08-19T11:22:00-10:00  23.27746 -156.48707      36   6.3 Hikianalia
        2018-08-19T09:16:00Z 2018-08-18T23:16:00-10:00 2018-08-18T23:16:00-10:00  22.24714 -157.30537      18   4.7 Hikianalia
        2018-08-18T21:10:00Z 2018-08-18T11:10:00-10:00 2018-08-18T10:10:00-11:00  21.33990 -157.62783      84   1.2 Hikianalia
        2018-08-18T09:04:00Z 2018-08-17T23:04:00-10:00 2018-08-17T22:04:00-11:00  21.31304 -157.88881       0   0.0 Hikianalia
        2018-08-17T21:02:00Z 2018-08-17T11:02:00-10:00 2018-08-17T10:02:00-11:00  21.31292 -157.88881       0   0.0 Hikianalia
        2018-08-17T08:58:00Z 2018-08-16T22:58:00-10:00 2018-08-16T21:58:00-11:00  21.31292 -157.88881     180   0.0 Hikianalia
        2018-08-16T20:54:00Z 2018-08-16T10:54:00-10:00 2018-08-16T09:54:00-11:00  21.31304 -157.88881      90   0.0 Hikianalia
        2018-08-16T08:48:00Z 2018-08-15T22:48:00-10:00 2018-08-15T21:48:00-11:00  21.31304 -157.88894     270   0.0 Hikianalia
        2018-08-15T20:44:00Z 2018-08-15T10:44:00-10:00 2018-08-15T09:44:00-11:00  21.31304 -157.88881       0   0.0 Hikianalia
        2018-08-15T08:38:00Z 2018-08-14T22:38:00-10:00 2018-08-14T21:38:00-11:00  21.31304 -157.88881     157   0.0 Hikianalia
        2018-08-14T20:36:00Z 2018-08-14T10:36:00-10:00 2018-08-14T09:36:00-11:00  21.32070 -157.89222     118   0.0 Hikianalia
        2018-08-14T08:32:00Z 2018-08-13T22:32:00-10:00 2018-08-13T21:32:00-11:00  21.32082 -157.89246     317   0.0 Hikianalia
        2018-08-13T20:30:00Z 2018-08-13T10:30:00-10:00 2018-08-13T09:30:00-11:00  21.32070 -157.89234     250   0.0 Hikianalia
        2018-08-13T08:26:00Z 2018-08-12T22:26:00-10:00 2018-08-12T21:26:00-11:00  21.32082 -157.89197       0   0.0 Hikianalia
        2018-08-12T20:24:00Z 2018-08-12T10:24:00-10:00 2018-08-12T09:24:00-11:00  21.32082 -157.89197       0   0.0 Hikianalia
        2018-08-12T07:20:00Z 2018-08-11T21:20:00-10:00 2018-08-11T20:20:00-11:00  21.32082 -157.89197       0   0.0 Hikianalia
        2018-08-11T19:18:00Z 2018-08-11T09:18:00-10:00 2018-08-11T08:18:00-11:00  21.32082 -157.89197      90   0.0 Hikianalia
        2018-08-11T07:12:00Z 2018-08-10T21:12:00-10:00 2018-08-10T20:12:00-11:00  21.32082 -157.89210     338   0.0 Hikianalia
        2018-08-10T18:10:00Z 2018-08-10T08:10:00-10:00 2018-08-10T07:10:00-11:00  21.31304 -157.88881      90   0.0 Hikianalia
        2018-08-10T06:06:00Z 2018-08-09T20:06:00-10:00 2018-08-09T19:06:00-11:00  21.31304 -157.88894     270   0.0 Hikianalia
        2018-08-09T18:04:00Z 2018-08-09T08:04:00-10:00 2018-08-09T07:04:00-11:00  21.31304 -157.88881       0   0.0 Hikianalia
        2018-08-09T05:58:00Z 2018-08-08T19:58:00-10:00 2018-08-08T18:58:00-11:00  21.31304 -157.88881       0   0.0 Hikianalia
        2018-08-08T17:56:00Z 2018-08-08T07:56:00-10:00 2018-08-08T06:56:00-11:00  21.31304 -157.88881       0   0.0 Hikianalia
        2018-08-08T05:50:00Z 2018-08-07T19:50:00-10:00 2018-08-07T18:50:00-11:00  21.31304 -157.88881      90   0.0 Hikianalia
        2018-08-07T16:48:00Z 2018-08-07T06:48:00-10:00 2018-08-07T05:48:00-11:00  21.31304 -157.88894       0   0.0 Hikianalia
        2018-08-07T04:42:00Z 2018-08-06T18:42:00-10:00 2018-08-06T17:42:00-11:00  21.31304 -157.88894     270   0.0 Hikianalia
        2018-08-06T16:40:00Z 2018-08-06T06:40:00-10:00 2018-08-06T05:40:00-11:00  21.31304 -157.88881      90   0.0 Hikianalia
        2018-08-06T04:34:00Z 2018-08-05T18:34:00-10:00 2018-08-05T17:34:00-11:00  21.31304 -157.88894       0   0.0 Hikianalia
        2018-08-05T16:32:00Z 2018-08-05T06:32:00-10:00 2018-08-05T05:32:00-11:00  21.31304 -157.88894     270   0.0 Hikianalia
        2018-08-05T04:24:00Z 2018-08-04T18:24:00-10:00 2018-08-04T17:24:00-11:00  21.31304 -157.88881       0   0.0 Hikianalia
        2018-08-04T16:22:00Z 2018-08-04T06:22:00-10:00 2018-08-04T05:22:00-11:00  21.31304 -157.88881      90   0.0 Hikianalia
        2018-08-04T04:16:00Z 2018-08-03T18:16:00-10:00 2018-08-03T17:16:00-11:00  21.31304 -157.88894     270   0.0 Hikianalia
        2018-08-03T16:12:00Z 2018-08-03T06:12:00-10:00 2018-08-03T05:12:00-11:00  21.31304 -157.88881       0   0.0 Hikianalia
        2018-08-03T04:06:00Z 2018-08-02T18:06:00-10:00 2018-08-02T17:06:00-11:00  21.31304 -157.88881       0   0.0 Hikianalia
        2018-08-02T16:04:00Z 2018-08-02T06:04:00-10:00 2018-08-02T05:04:00-11:00  21.31292 -157.88881      25   0.1 Hikianalia
        2018-08-02T03:58:00Z 2018-08-01T17:58:00-10:00 2018-08-01T16:58:00-11:00  21.29579 -157.89732     205   0.1 Hikianalia
        2018-08-01T15:54:00Z 2018-08-01T05:54:00-10:00 2018-08-01T04:54:00-11:00  21.31304 -157.88869       0   0.0 Hikianalia
        2018-08-01T03:50:00Z 2018-07-31T17:50:00-10:00 2018-07-31T16:50:00-11:00  21.31304 -157.88869      90   0.0 Hikianalia
        2018-07-31T15:48:00Z 2018-07-31T05:48:00-10:00 2018-07-31T04:48:00-11:00  21.31304 -157.88881       0   0.0 Hikianalia
        2018-07-31T01:42:00Z 2018-07-30T15:42:00-10:00 2018-07-30T14:42:00-11:00  21.31304 -157.88881       0   0.0 Hikianalia
        2018-07-30T13:40:00Z 2018-07-30T03:40:00-10:00 2018-07-30T02:40:00-11:00  21.31304 -157.88881     317   0.0 Hikianalia
        2018-07-30T01:34:00Z 2018-07-29T15:34:00-10:00 2018-07-29T14:34:00-11:00  21.31292 -157.88869      90   0.0 Hikianalia
        2018-07-29T13:32:00Z 2018-07-29T03:32:00-10:00 2018-07-29T02:32:00-11:00  21.31292 -157.88881     180   0.0 Hikianalia
        2018-07-29T01:26:00Z 2018-07-28T15:26:00-10:00 2018-07-28T14:26:00-11:00  21.31304 -157.88881       0   0.0 Hikianalia
        2018-07-28T13:20:00Z 2018-07-28T03:20:00-10:00 2018-07-28T02:20:00-11:00  21.31292 -157.88881     270   0.0 Hikianalia
        2018-07-28T01:16:00Z 2018-07-27T15:16:00-10:00 2018-07-27T14:16:00-11:00  21.31292 -157.88857      90   0.0 Hikianalia
        2018-07-27T13:12:00Z 2018-07-27T03:12:00-10:00 2018-07-27T02:12:00-11:00  21.31292 -157.88881     270   0.0 Hikianalia
        2018-07-27T01:08:00Z 2018-07-26T15:08:00-10:00 2018-07-26T14:08:00-11:00  21.31292 -157.88857     156   0.0 Hikianalia
        2018-07-26T13:02:00Z 2018-07-26T03:02:00-10:00 2018-07-26T02:02:00-11:00  21.32106 -157.89246     298   0.0 Hikianalia
        2018-07-26T00:58:00Z 2018-07-25T14:58:00-10:00 2018-07-25T13:58:00-11:00  21.32094 -157.89222      90   0.0 Hikianalia
        2018-07-25T12:54:00Z 2018-07-25T02:54:00-10:00 2018-07-25T01:54:00-11:00  21.32094 -157.89246     180   0.0 Hikianalia
        2018-07-25T00:50:00Z 2018-07-24T14:50:00-10:00 2018-07-24T13:50:00-11:00  21.32106 -157.89246       0   0.0 Hikianalia
        2018-07-24T12:44:00Z 2018-07-24T02:44:00-10:00 2018-07-24T01:44:00-11:00  21.32106 -157.89246       0   0.0 Hikianalia
        2018-07-24T00:40:00Z 2018-07-23T14:40:00-10:00 2018-07-23T13:40:00-11:00  21.32106 -157.89246     337   0.0 Hikianalia
        2018-07-23T12:36:00Z 2018-07-23T02:36:00-10:00 2018-07-23T01:36:00-11:00  21.31304 -157.88881       0   0.0 Hikianalia
        2018-07-23T00:32:00Z 2018-07-22T14:32:00-10:00 2018-07-22T13:32:00-11:00  21.31304 -157.88881       0   0.0 Hikianalia
        2018-07-22T12:26:00Z 2018-07-22T02:26:00-10:00 2018-07-22T01:26:00-11:00  21.31304 -157.88881       0   0.0 Hikianalia
        2018-07-22T00:22:00Z 2018-07-21T14:22:00-10:00 2018-07-21T13:22:00-11:00  21.31292 -157.88881     137   0.0 Hikianalia
        2018-07-21T12:18:00Z 2018-07-21T02:18:00-10:00 2018-07-21T01:18:00-11:00  21.31304 -157.88894     317   0.0 Hikianalia
        2018-07-21T00:12:00Z 2018-07-20T14:12:00-10:00 2018-07-20T13:12:00-11:00  21.31292 -157.88881       0   0.0 Hikianalia
        2018-07-20T12:08:00Z 2018-07-20T02:08:00-10:00 2018-07-20T01:08:00-11:00  21.31292 -157.88881       0   0.0 Hikianalia
        2018-07-20T00:04:00Z 2018-07-19T14:04:00-10:00 2018-07-19T13:04:00-11:00  21.31292 -157.88881      90   0.0 Hikianalia
        2018-07-19T12:00:00Z 2018-07-19T02:00:00-10:00 2018-07-19T01:00:00-11:00  21.31292 -157.88894     270   0.0 Hikianalia
        2018-07-18T23:54:00Z 2018-07-18T13:54:00-10:00 2018-07-18T12:54:00-11:00  21.31292 -157.88869     180   0.0 Hikianalia
        2018-07-18T11:50:00Z 2018-07-18T01:50:00-10:00 2018-07-18T00:50:00-11:00  21.31317 -157.88869       0   0.0 Hikianalia
        2018-07-17T23:46:00Z 2018-07-17T13:46:00-10:00 2018-07-17T12:46:00-11:00  21.31280 -157.88869     155   0.0 Hikianalia
        2018-07-17T11:42:00Z 2018-07-17T01:42:00-10:00 2018-07-17T00:42:00-11:00  21.31304 -157.88881       0   0.0 Hikianalia
        2018-07-16T23:36:00Z 2018-07-16T13:36:00-10:00 2018-07-16T12:36:00-11:00  21.31292 -157.88881       0   0.0 Hikianalia
        2018-07-16T11:32:00Z 2018-07-16T01:32:00-10:00 2018-07-16T00:32:00-11:00  21.31292 -157.88881     180   0.0 Hikianalia
        2018-07-15T23:28:00Z 2018-07-15T13:28:00-10:00 2018-07-15T12:28:00-11:00  21.31304 -157.88881      90   0.0 Hikianalia
        2018-07-15T11:22:00Z 2018-07-15T01:22:00-10:00 2018-07-15T00:22:00-11:00  21.31304 -157.88894     317   0.0 Hikianalia
        2018-07-14T23:18:00Z 2018-07-14T13:18:00-10:00 2018-07-14T12:18:00-11:00  21.31292 -157.88881       0   0.0 Hikianalia
        2018-07-14T11:14:00Z 2018-07-14T01:14:00-10:00 2018-07-14T00:14:00-11:00  21.31292 -157.88881       0   0.0 Hikianalia
        2018-07-13T23:08:00Z 2018-07-13T13:08:00-10:00 2018-07-13T12:08:00-11:00  21.31292 -157.88881     137   0.0 Hikianalia
        2018-07-13T11:04:00Z 2018-07-13T01:04:00-10:00 2018-07-13T00:04:00-11:00  21.31304 -157.88894     270   0.0 Hikianalia
        2018-07-12T23:00:00Z 2018-07-12T13:00:00-10:00 2018-07-12T12:00:00-11:00  21.31304 -157.88881       0   0.0 Hikianalia
        2018-07-12T10:54:00Z 2018-07-12T00:54:00-10:00 2018-07-11T23:54:00-11:00  21.31304 -157.88881      48   0.0 Hikianalia
        2018-07-11T22:50:00Z 2018-07-11T12:50:00-10:00 2018-07-11T11:50:00-11:00  21.30952 -157.89295     227   0.0 Hikianalia
        2018-07-11T10:46:00Z 2018-07-11T00:46:00-10:00 2018-07-10T23:46:00-11:00  21.31304 -157.88894     305   0.0 Hikianalia
        2018-07-10T22:40:00Z 2018-07-10T12:40:00-10:00 2018-07-10T11:40:00-11:00  21.31280 -157.88857     118   0.0 Hikianalia
        2018-07-10T10:36:00Z 2018-07-10T00:36:00-10:00 2018-07-09T23:36:00-11:00  21.31304 -157.88906     298   0.0 Hikianalia
        2018-07-09T22:32:00Z 2018-07-09T12:32:00-10:00 2018-07-09T11:32:00-11:00  21.31292 -157.88881     137   0.0 Hikianalia
        2018-07-09T10:26:00Z 2018-07-09T00:26:00-10:00 2018-07-08T23:26:00-11:00  21.31304 -157.88894     317   0.0 Hikianalia
        2018-07-08T22:22:00Z 2018-07-08T12:22:00-10:00 2018-07-08T11:22:00-11:00  21.31292 -157.88881     137   0.0 Hikianalia
        2018-07-08T10:16:00Z 2018-07-08T00:16:00-10:00 2018-07-07T23:16:00-11:00  21.31304 -157.88894     270   0.0 Hikianalia
        2018-07-07T22:10:00Z 2018-07-07T12:10:00-10:00 2018-07-07T11:10:00-11:00  21.31304 -157.88881     180   0.0 Hikianalia
        2018-07-07T10:04:00Z 2018-07-07T00:04:00-10:00 2018-07-06T23:04:00-11:00  21.31317 -157.88881     317   0.0 Hikianalia
        2018-07-06T22:00:00Z 2018-07-06T12:00:00-10:00 2018-07-06T11:00:00-11:00  21.31304 -157.88869     137   0.0 Hikianalia
        2018-07-06T09:54:00Z 2018-07-05T23:54:00-10:00 2018-07-05T22:54:00-11:00  21.31317 -157.88881     223   0.0 Hikianalia
        2018-07-05T21:50:00Z 2018-07-05T11:50:00-10:00 2018-07-05T10:50:00-11:00  21.31329 -157.88869      43   0.0 Hikianalia
        2018-07-05T09:46:00Z 2018-07-04T23:46:00-10:00 2018-07-04T22:46:00-11:00  21.31317 -157.88881       0   0.0 Hikianalia
        2018-07-04T21:42:00Z 2018-07-04T11:42:00-10:00 2018-07-04T10:42:00-11:00  21.31317 -157.88881       0   0.0 Hikianalia
        2018-07-04T09:36:00Z 2018-07-03T23:36:00-10:00 2018-07-03T22:36:00-11:00  21.31304 -157.88881     180   0.0 Hikianalia
        2018-07-03T21:32:00Z 2018-07-03T11:32:00-10:00 2018-07-03T10:32:00-11:00  21.31317 -157.88881       0   0.0 Hikianalia
        2018-07-03T09:26:00Z 2018-07-02T23:26:00-10:00 2018-07-02T22:26:00-11:00  21.31317 -157.88881       0   0.0 Hikianalia
        2018-07-02T21:22:00Z 2018-07-02T11:22:00-10:00 2018-07-02T10:22:00-11:00  21.31317 -157.88881      90   0.0 Hikianalia
        2018-07-02T09:18:00Z 2018-07-01T23:18:00-10:00 2018-07-01T22:18:00-11:00  21.31317 -157.88894     270   0.0 Hikianalia
        2018-07-01T21:12:00Z 2018-07-01T11:12:00-10:00 2018-07-01T10:12:00-11:00  21.31317 -157.88881       0   0.0 Hikianalia
        2018-07-01T09:06:00Z 2018-06-30T23:06:00-10:00 2018-06-30T22:06:00-11:00  21.31317 -157.88881     317   0.0 Hikianalia

  Jump to: Map   Top of Page   Distances   Track Data   Planned Ports of Call   Notes   Google Earth   Bottom of Page
  Planned ports of call:
  2013  2014  2015  2016  2017

    # arrive     depart      latitude  longitude port
    1 2013       2013        19.73252 -155.05240 Hilo - Hawaiʻi
    2 2013       2013        18.90872 -155.68050 Ka Lae - Hawaiʻi
    3 2013       2013        20.78842 -156.50975 Maʻalaea - Maui, Hawaiʻi
    4 2013       2013        20.52511 -156.70608 Kealaikahiki - Hawaiʻi
    5 2013       2013        20.74118 -156.88468 Mānele - Lānaʻi, Hawaiʻi
    6 2013       2013        21.08046 -157.02995 Kaunakakai - Molokaʻi, Hawaiʻi
    7 2013       2013        20.03412 -155.82863 Kawaihae - Hawaiʻi
    8 2013       2013        19.18511 -155.90916 Miloliʻi - Hawaiʻi
    9 2013       2013        19.47347 -155.92622 Kealakekua/Hōnaunau - Hawaiʻi
   10 2013       2013        19.56140 -155.96492 Keauhou - Hawaiʻi
   11 2013       2013        20.75888 -155.98222 Hāna - Maui, Hawaiʻi
   12 2013       2013        21.01463 -156.63946 Honolua - Maui, Hawaiʻi
   13 2013       2013        21.19005 -156.98691 Kalaupapa - Molokaʻi, Hawaiʻi
   14 2013       2013        21.59747 -158.10579 Haleʻiwa - Hawaiʻi
   15 2013       2013        22.21236 -159.49831 Hanalei - Kauaʻi, Hawaiʻi
   16 2013       2013        23.05130 -161.92037 Nihoa - Hawaiʻi
   17 2013       2013        21.95176 -159.35502 Nāwiliwili - Kauaʻi, Hawaiʻi
   18 2013       2013        21.52903 -158.23253 Mākua - Oʻahu, Hawaiʻi
   19 2013       2013        21.47556 -158.22267 Mākaha - Oʻahu, Hawaiʻi
   20 2013       2013        21.37384 -158.14907 Nānākuli - Oʻahu, Hawaiʻi
   21 2013       2013        21.44329 -158.19065 Pokaʻi - Hawaiʻi
   22 2013       2013        21.44492 -157.80994 Heʻeia Kea - Oʻahu, Hawaiʻi
   23 2013       2013        21.50530 -157.83994 Kualoa - Oʻahu, Hawaiʻi
   24 2013       2013        21.63028 -157.91394 Laʻie - Oʻahu, Hawaiʻi
   25 2013       2013        21.55853 -157.87298 Kahana - Oʻahu, Hawaiʻi
   26 2013       2013        21.43139 -157.79069 Moku O Loʻe - Oʻahu, Hawaiʻi
   27 2013       2013        21.39974 -157.72436 Kailua - Oʻahu, Hawaiʻi
   28 2013       2013        21.33280 -157.69114 Waimānalo - Oʻahu, Hawaiʻi
   29 2013       2013        21.27674 -157.71260 Maunalua - Oʻahu, Hawaiʻi
   30 2013       2013        21.27130 -157.83049 Waikīkī - Oʻahu, Hawaiʻi
   31 2013       2013        21.32506 -158.12147 Ko Olina - Oʻahu, Hawaiʻi
   32 2013       2014-05-17  21.31334 -157.88862 Māmala/METC - Oʻahu, Hawaiʻi
   33 2014-05-21 2014-05-30  19.73201 -155.05240 Hilo - Hawaiʻi (crew change)
   34 2014-06-16 2014-06-20 -14.94651 -147.71664 Rangiroa - Tuamotu Archipelago
   35 2014-06-22 2014-07-02 -17.54090 -149.57305 Papeʻete - French Polynesia
   36 2014-07-02 2014-07-08 -17.75195 -149.18030 Tautira - French Polynesia (crew change)
   37 2014-07-10 2014-07-13 -17.51216 -149.85049 Moʻorea - Society Islands
   38 2014-07-14 2014-07-16 -16.83352 -151.35965 Taputapuātea - Raʻiatea, Society Islands
   39 2014-07-16 2014-07-17 -16.79254 -151.01057 Huahine Iti- Society Islands
   40 2014-07-18 2014-07-19 -16.71450 -151.03517 Huahine Nui- Society Islands
   41 2014-07-19 2014-07-20 -16.62590 -151.45788 Tahaʻa - Society Islands
   42 2014-07-20 2014-07-21 -16.50720 -151.75325 Bora Bora - Society Islands
   43 2014-07-22 2014-07-25 -16.45710 -152.25052 Maupiti - Society Islands
   44 2014-07-29 2014-07-29 -19.85351 -157.72857 Mangarei, Mitiaro - Ngaputoru - Cook Islands
   45 2014-07-31 2014-08-06 -21.20487 -159.78488 Avatiu - Rarotonga, Cook Islands
   46 2014-08-08 2014-08-12 -18.86489 -159.79993 Aitutaki - Cook Islands
   47 2014-08-15 2014-08-15 -18.05676 -163.18522 Palmerston (waypoint)
   48 2014-08-20 2014-08-20 -14.21794 -169.51376 Faleāsao, Taʻū, Manuʻa - American Samoa
   49 2014-08-20 2014-08-20 -14.16341 -169.68137 Ofu, Manuʻa - American Samoa
   50 2014-08-21 2014-08-30 -14.27290 -170.68150 Pago Pago - Samoa (crew change)
   51 2014-08-31 2014-09-07 -13.83157 -171.76166 Apia - Samoa
   52 2014-09-10 2014-09-14 -11.05920 -171.09310 Swains - American Samoa
   53 2014-09-17 2014-10-16 -14.27340 -170.68150 Pago Pago - Samoa (crew change)
   54 2014-10-19 2014-10-21 -18.65250 -173.98575 Vavaʻu - Tonga
   55 2014-10-22 2014-10-28 -21.13848 -175.18328 Nukuʻalofa - Tonga
   56 2014-11-03 2014-11-03 -29.21990 -177.98200 Raoul - Kermadec Islands - Aotearoa/New Zealand (waypoint)
   57 2014-11-10 2014-11-15 -35.31215  174.12171 Opua - Aotearoa/New Zealand
   58 2014-11-15 2014-11-16 -35.27571  174.08326 Waitangi - Aotearoa/New Zealand
   59 2014-11-16 2014-11-dd -35.31658  174.12098 Opua - Aotearoa/New Zealand
   60 2014-11-22 2014-12-04 -35.72456  174.32682 Whangarei - Aotearoa/New Zealand
   61 2014-12-05 2014-12-07 -36.76772  174.93078 Motutapu Island - Aotearoa/New Zealand
   62 2014-12-07 2014-12-dd -36.84501  174.81234 Okahu Bay - Aotearoa/New Zealand
   63 2014-12-07 2015-01-09 -36.84131  174.76407 Auckland - Aotearoa/New Zealand
   64 2015-01-12 2015-01-12 -39.47486  176.89020 Napier - Aotearoa/New Zealand
   65 2015-01-14 2015-01-20 -41.28777  174.78155 Wellington - Aotearoa/New Zealand
   66 2015-01-21 2015-01-24 -40.82181  172.89601 Golden Bay - Aotearoa/New Zealand
   67 2015-01-25 2015-01-25 -41.28797  174.78155 Wellington - Aotearoa/New Zealand
   68 2015-01-27 2015-01-31 -39.48470  176.89300 Napier - Aotearoa/New Zealand
   69 2015-02-01 2015-02-06 -38.67030  178.02975 Gisborne - Aotearoa/New Zealand
   70 2015-02-08 2015-02-13 -37.66889  176.17764 Tauranga - Aotearoa/New Zealand
   71 2015-02-14 2015-04-20 -36.84087  174.75989 Auckland - Aotearoa/New Zealand
   72 2015-04-21 2015-04-29 -34.99106  173.53702 Aurere - Aotearoa/New Zealand
   73 2015-05-11 2015-06-17 -30.30426  153.14676 Coffs Harbor - Australia
   74 2015-05-19 2015-05-23 -33.86910  151.19939 Sydney - Australia
   75 2015-05-26 2015-06-05 -27.51416  153.28579 Brisbane - Australia
   76 2015-06-11 2015-06-16 -19.25787  146.82435 Townsville - Australia
   77 2015-06-17 2015-06-25 -16.91803  145.78219 Cairns - Australia
   78 2015-06-26 2015-06-27 -14.66009  145.44971 Lizard Island Research Station - Australia
   79 2015-06-29 2015-07-30 -10.64267  142.64270 Mount Adolphus Island - Australia
   80 2015-06-30 2015-07-02 -10.58700  142.21944 Thursday Island - Australia
   81 2015-07-07 2015-07-08 -12.41742  130.80822 Darwin - Australia (East Point)
   82 2015-07-08 2015-07-20 -12.47027  130.84868 Darwin - Australia (Stokes Hill Wharf) (crew change)
   83 2015-07-24 2015-07-27 -12.23930  122.98513 Ashmore Reef 
   84 2015-07-31 2015-08-16  -8.74496  115.21114 Benoa - Bali, Indonesia (crew change)
   85 2015-08-20 2015-08-20 -10.48735  105.63585 Christmas Island - AU (waypoint)
   86 2015-08-24 2015-08-28 -12.09237   96.88024 Cocos(Keeling) Island - AU
   87 2015-09-14 2015-10-04 -20.15967   57.49721 Port Louis - Mauritius (crew change)
   88 2015-10-09 2015-10-09 -25.06255   46.96294 Fort Dauphin/Taolagnaro - Madagascar (canceled)
   89 2015-10-15 2015-10-18 -25.98272   32.57538 Maputo - Mozambique (vessel in transit)
   90 2015-10-19 2015-10-23 -28.79416   32.07838 Richards Bay - South Africa
   91 2015-10-23 2015-10-29 -29.86303   31.02178 Durban - South Africa
   92 2015-10-31 2015-10-31 -33.02820   27.91305 East London - South Africa (bypassed)
   93 2015-11-01 2015-11-03 -33.96612   25.63420 Port Elizabeth - South Africa
   94 2015-11-04 2015-11-09 -34.17861   22.14764 Mossel Bay- South Africa
   95 2015-11-10 2015-11-12 -34.19185   18.43300 Simon's Town, False Bay - South Africa
   96 2015-11-12 2015-12-24 -33.90348   18.42262 Cape Town - South Africa (drydock, crew change)
   97 2015-12-31 2015-12-31 -22.92744   14.47115 Walvis Bay - Namibia (waypoint)
   98 2016-01-08 2016-01-13 -15.92379   -5.72466 Saint Helena, British Overseas Territory
   99 2016-01-19 2016-01-19  -7.92438  -14.41516 Georgetown - Ascension - British Overseas Territory (waypoint)
  100 2016-01-27 2016-01-31  -3.82992  -32.40850 Fernando de Noronha - Brazil
  101 2016-02-02 2016-02-12  -5.75898  -35.20227 Natal, Rio Grande do Norte - Brazil (crew change - start leg:17)
  102 2016-02-28 2016-03-04  18.33269  -64.79710 Cruz Bay, St. John - US Virgin Islands (crew change)
  103 2016-03-04 2016-03-05  18.50341  -64.35835 Saba Rock, Virgin Gorda, British Virgin Islands
  104 2016-03-05 2016-03-06  18.51110  -64.39089 Mosquito Island, Virgin Gorda, British Virgin Islands
  105 2016-03-06 2016-03-11  18.50345  -64.35831 Saba Rock, Virgin Gorda, British Virgin Islands
  106 2016-03-18 2016-03-23  23.09059  -82.49585 Havana - Cuba
  107 2016-03-23 2016-03-25  24.56169  -81.80212 Key West, Florida - USA
  108 2016-03-26 2016-03-26  25.84502  -81.38681 Everglades City, Florida - USA
  109 2016-03-27 2016-03-29  26.64752  -81.87098 Fort Myers, Florida - USA
  110 2016-03-29 2016-03-30  26.83145  -81.08986 Moore Haven, Florida - USA
  111 2016-03-30 2016-04-03  27.21235  -80.25697 Stuart, Florida - USA
  112 2016-04-03 2016-04-05  28.14815  -80.60481 Indian Harbour, Florida - USA
  113 2016-04-05 2016-04-08  28.62141  -80.80982 Titusville, Florida - USA (crew change)
  114 2016-04-08 2016-04-09  29.57703  -81.19407 Palm Coast Marina, Florida - USA
  115 2016-04-09 2016-04-10  29.91670  -81.30787 Camachee Cove Yacht Harbor, St. Augustine, Florida - USA
  116 2016-04-10 2016-04-11  31.15114  -81.50020 Brunswick Landing Marina, Georgia - USA
  117 2016-04-11 2016-04-12  31.88676  -81.21245 Fort McAllister Marina, Georgia - USA
  118 2016-04-12 2016-04-13  32.08260  -81.08548 Westin Savannah Harbor, Georgia - USA
  119 2016-04-13 2016-04-14  32.60619  -80.15707 Bohicket Marina and Market, South Carolina - USA
  120 2016-04-14 2016-04-17  32.78864  -79.92440 Charleston, South Carolina - USA
  121 2016-04-17 2016-04-18  33.56243  -79.08650 Wacca Wache Marina, South Carolina - USA
  122 2016-04-18 2016-04-19  34.05895  -77.88906 Joyner Marina, North Carolina - USA
  123 2016-04-19 2016-04-20  34.72246  -76.70419 Morehead City, North Carolina - USA
  124 2016-04-20 2016-04-21  35.53271  -76.53591 Dowry Creek Marina, North Carolina - USA
  125 2016-04-21 2016-04-22  36.34954  -75.94832 Coinjock Marina, North Carolina - USA
  126 2016-04-22 2016-04-23  37.01228  -76.34087 Hampton, Virginia - USA
  127 2016-04-23 2016-04-23  37.01292  -76.45711 Newport News, VA - USA
  128 2016-04-23 2016-04-24  37.14233  -76.37762 Whitehouse Cove Marina, Poquoson, VA - USA
  129 2016-04-24 2016-05-08  37.23878  -76.50695 Yorktown, VA - USA (crew change - start leg 20)
  130 2016-05-08 2016-05-09  37.84306  -76.28793 Reedville, VA - USA
  131 2016-05-09 2016-05-11  37.83009  -75.99394 Tangier, VA - USA
  132 2016-05-11 2016-05-13  38.12680  -76.65479 Hull Springs Farm, VA - USA
  133 2016-05-13 2016-05-15  38.69525  -77.06966 Piscataway, MD - USA
  134 2016-05-15 2016-05-15  38.80337  -77.03860 Waterfront Park, Alexandria, VA - USA
  135 2016-05-15 2016-05-18  38.80642  -77.03867 City Marina, Alexandria, VA - USA
  136 2016-05-18 2016-05-26  38.90429  -77.07195 Washington Canoe Club, Washington, D.C. - USA
  137 2016-05-27 2016-05-28  39.53008  -75.81447 Chesapeake City, MD - USA
  138 2016-05-28 2016-05-31  38.94950  -74.90859 Cape May, NJ - USA
  139 2016-05-31 2016-06-05  40.58592  -73.90376 Gateway Marina, New York City, New York - USA
  140 2016-06-05 2016-06-08  40.71290  -74.01714 North Cove Yacht Harbor, New York City, New York - USA
  141 2016-06-08 2016-06-08  40.74417  -73.96096 Gantry Plaza, New York City, New York - USA
  142 2016-06-08 2016-06-10  40.72498  -74.03277 Newport Yacht Club and Marina, Jersey City, New Jersey - USA
  143 2016-06-10 2016-06-11  40.72139  -74.01574 Pier 26, New York City, New York - USA
  144 2016-06-11 2016-06-18  40.72498  -74.03272 Newport Yacht Club and Marina, Jersey City, New Jersey - USA
  145 2016-06-18 2016-06-19  40.95591  -73.08446 Port Jefferson, New York - USA
  146 2016-06-19 2016-06-23  41.18279  -71.57685 Block Island, Rhode Island (crew change - start leg 21)
  147 2016-06-23 2016-06-27  41.36379  -71.96442 Mystic Seaport, Connecticut - USA
  148 2016-06-27 2016-06-28  41.35328  -70.76655 Menemsha - Martha's Vineyard - Massachusetts - USA
  149 2016-06-28 2016-07-01  41.45388  -70.59702 Vineyard Haven - Martha's Vineyard - Massachusetts - USA
  150 2016-07-01 2016-07-05  41.52348  -70.67089 Woods Hole, Massachusetts - USA
  151 2016-07-05 2016-07-08  41.63404  -70.92037 New Bedford, Massachusetts - USA
  152 2016-07-08 2016-07-09  41.73870  -70.62659 Massachusetts Maritime Academy (afternoon) - Massachusetts - USA
  153 2016-07-09 2016-07-14  42.35347  -71.04337 Boston, Massachusetts - USA
  154 2016-07-14 2016-07-16  42.51935  -70.88641 Salem, Massachusetts - USA
  155 2016-07-16 2016-07-19  43.05786  -70.72783 Portsmouth, New Hampshire - USA
  156 2016-07-19 2016-07-20  43.66212  -70.24200 Portland, Maine - USA
  157 2016-07-20 2016-07-22  44.03478  -68.88588 Hurricane Island, Maine - USA
  158 2016-07-22 2016-07-30  44.33616  -68.31804 Mt. Desert, Maine - USA (crew change - start leg 22)
  159 2016-07-31 2016-04-dd  43.83647  -66.12306 Yarmouth, Nova Scotia, Canada
  160 2016-08-04 2016-08-08  44.33611  -68.31804 Mt. Desert, Maine - USA
  161 2016-08-08 2016-08-09  43.84423  -69.62745 Boothbay, Maine - USA
  162 2016-08-09 2016-08-11  42.51931  -70.88635 Salem, Massachusetts - USA
  163 2016-08-11 2016-08-11  41.77581  -70.49714 East End Cape Cod Canal, Massachusetts - USA (waypoint)
  164 2016-08-11 2016-08-13  41.73800  -70.62643 Massachusetts Maritime Academy, West End Cape Cod Canal, Massachusetts - USA
  165 2016-08-13 2016-08-14  41.47914  -71.33435 Newport, Rhode Island - USA
  166 2016-08-15 2016-08-16  40.87868  -73.52730 Oyster Bay, New York - USA
  167 2016-08-16 2016-08-27  40.72546  -74.03415 Newport Yacht Club and Marina, Jersey City, New Jersey - USA (crew change - start leg 23)
  168 2016-08-27 2016-08-28  41.69688  -73.94120 Poughkeepsie, New York - USA
  169 2016-08-28 2016-08-28  42.52879  -73.75954 Castleton, New York - USA
  170 2016-08-28 2016-08-29  42.78695  -73.67928 Waterford, New York - USA
  171 2016-08-29 2016-08-29  42.78912  -73.68180 Erie Canal Lock E-2, New York - USA (waypoint)
  172 2016-08-29 2016-08-29  42.79486  -73.68613 Erie Canal Lock-E3 Waterford (waypoint)
  173 2016-08-29 2016-08-29  42.80078  -73.69142 Erie Canal Lock-E4 Waterford (waypoint)
  174 2016-08-29 2016-08-29  42.80216  -73.69629 Erie Canal Lock-E5 Waterford (waypoint)
  175 2016-08-29 2016-08-29  42.80286  -73.70173 Erie Canal Lock-E6 Crescent (waypoint)
  176 2016-08-29 2016-08-29  42.80323  -73.84706 Erie Canal Lock-E7 Vischer Ferry (waypoint)
  177 2016-08-29 2016-08-29  42.82934  -73.99139 Erie Canal Lock-E8 Scotia (waypoint)
  178 2016-08-29 2016-08-29  42.87867  -74.04124 Erie Canal Lock-E9 Rotterdam (waypoint)
  179 2016-08-29 2016-08-29  42.91709  -74.14078 Erie Canal Lock-E10 Cranesville (waypoint)
  180 2016-08-29 2016-08-30  42.93358  -74.19086 Amsterdam, New York - USA
  181 2016-08-30 2016-08-30  42.94662  -74.21010 Erie Canal Lock-E11 Amsterdam (waypoint)
  182 2016-08-30 2016-08-30  42.94559  -74.28858 Erie Canal Lock-E12 Tribes Hill (waypoint)
  183 2016-08-30 2016-08-30  42.91772  -74.44556 Erie Canal Lock-E13 Yosts (waypoint)
  184 2016-08-30 2016-08-30  42.90940  -74.57771 Erie Canal Lock-E14 Canajoharie (waypoint)
  185 2016-08-30 2016-08-30  42.93864  -74.62205 Erie Canal Lock-E15 Fort Plain (waypoint)
  186 2016-08-30 2016-08-30  42.99226  -74.70858 Erie Canal Lock-E16 St. Johnsville (waypoint)
  187 2016-08-30 2016-08-30  43.03835  -74.84669 Erie Canal Lock-E17 Little Falls (waypoint)
  188 2016-08-30 2016-08-30  43.01619  -74.91691 Erie Canal Lock-E18 Jacksonburg (waypoint)
  189 2016-08-30 2016-08-31  43.01973  -75.02821 Ilion, New York - USA
  190 2016-08-31 2016-08-31  43.07377  -75.11384 Erie Canal Lock-E19 Frankfort (waypoint)
  191 2016-08-31 2016-08-31  43.14275  -75.29118 Erie Canal Lock-E20 Whitesboro (waypoint)
  192 2016-08-31 2016-08-31  43.20877  -75.61856 Erie Canal Lock-E21 New London (waypoint)
  193 2016-08-31 2016-08-31  43.20950  -75.64492 Erie Canal Lock-E22 New London (waypoint)
  194 2016-08-31 2016-09-01  43.19580  -75.72790 Sylvan Beach, New York - USA and rendezvous with Draken Harald Hårfagre
  195 2016-09-01 2016-09-01  43.22939  -76.30142 Oswego Canal Lock-O1 Phoenix (waypoint)
  196 2016-09-01 2016-09-01  43.31664  -76.41469 Oswego Canal Lock-O2 Fulton (waypoint)
  197 2016-09-01 2016-09-01  43.32422  -76.41865 Oswego Canal Lock-O3 Fulton (waypoint)
  198 2016-09-01 2016-09-01  43.40054  -76.47327 Oswego Canal Lock-O5 Minetto (waypoint)
  199 2016-09-01 2016-09-01  43.44468  -76.49494 Oswego Canal Lock-O6 High Dam (waypoint)
  200 2016-09-01 2016-09-01  43.45099  -76.50471 Oswego Canal Lock-O7 Oswego (waypoint)
  201 2016-09-01 2016-09-01  43.45659  -76.50878 Oswego Canal Lock-O8 Oswego (waypoint)
  202 2016-09-01 2016-09-04  43.46104  -76.51019 Oswego, New York - USA
  203 2016-09-04 2016-09-05  44.13123  -76.32978 Cape Vincent, New York - USA
  204 2016-09-05 2016-09-09  44.70106  -75.49539 Ogdensburg, New York - USA
  205 2016-09-09 2016-09-10  45.16455  -74.41972 Creg Quay Marina, Bainsville, Ontario - Canada
  206 2016-09-10 2016-09-13  45.40948  -73.70764 Kahnawake Marina, Quebec - Canada
  207 2016-09-13 2016-09-15  46.05081  -73.09180 Sorel, Quebec - Canada
  208 2016-09-15 2016-09-16  45.44679  -73.28314 Chambly, Quebec - Canada
  209 2016-09-16 2016-09-17  44.99133  -73.36203 Rouses Point, New York - USA
  210 2016-09-17 2016-09-27  44.18280  -73.43073 Westport, New York - USA
  211 2016-09-27 2016-09-28  43.16091  -73.57786 Fort Miller, New York - USA
  212 2016-09-28 2016-10-01  41.91871  -73.98073 Hudson River Maritime Museum, Kingston, New York - USA
  213 2016-10-01 2016-10-10  41.21782  -73.96578 West Haverstraw, New York - USA (crew change - start leg 24)
  214 2016-10-11 2016-10-11  40.71058  -74.04092 Liberty Landing Marina, New Jersey - USA (waypoint)
  215 2016-10-11 2016-10-12  39.37714  -74.42677 Atlantic City, New Jersey - USA
  216 2016-10-12 2016-10-13  39.53008  -75.81442 Chesapeake City, MD - USA
  217 2016-10-13 2016-10-14  38.96858  -76.47594 Annapolis, Maryland - USA
  218 2016-10-15 2016-10-16  37.14232  -76.37676 Poquoson, Virginia - USA
  219 2016-10-16 2016-10-17  37.01708  -76.34077 Hampton, Virginia - USA (crew change - end Leg 24)
  220 2016-10-17 2016-10-18  36.96552  -76.41113 Newport News, Virginia - USA (haulout, overland to The Mariners Museum drydock)
  221 2016-10-18 2016-11-07  37.05537  -76.48608 The Mariners Museum, Newport News, Virginia - USA (drydock)
  222 2016-11-07 2016-11-07  36.96759  -76.41360 Newport News, Virginia - USA (back in the water)
  223 2016-11-07 2016-11-14  37.01722  -76.34115 Hampton, Virginia - USA (crew change - start Leg 25)
  224 2016-11-14 2016-11-15  36.34830  -75.94915 Coinjock Marina, North Carolina - USA
  225 2016-11-15 2016-11-16  35.53290  -76.53610 Dowry Creek Marina, North Carolina - USA
  226 2016-11-16 2016-11-17  34.72240  -76.70425 Morehead City, North Carolina - USA
  227 2016-11-17 2016-11-18  34.21192  -77.80640 Wrightsville Beach, North Carolina - USA
  228 2016-11-18 2016-11-21  33.86420  -78.63842 Coquina Yacht Club, Little River, South Carolina - USA
  229 2016-11-21 2016-11-22  33.36508  -79.26626 Georgetown Landing Marina, Georgetown, South Carolina - USA
  230 2016-11-22 2016-11-23  32.75176  -80.01210 St. Johns Yacht Harbor, Johns Island, Charleston, South Carolina - USA (ICW mile 473)
  231 2016-11-23 2016-11-24  32.24403  -80.74750 Skull Creek Marina, Hilton Head Island, Beaufort, South Carolina - USA (ICW mile 555)
  232 2016-11-24 2016-11-25  31.78890  -81.20262 Kilkenny Marina, Richmond Hill, Georgia - USA (ICW mile 614)
  233 2016-11-25 2016-11-26  31.04677  -81.42267 Jekyll Harbor Marina, Georgia - USA (ICW mile 684)
  234 2016-11-26 2016-11-27  30.28932  -81.43018 Palm Cove Marina, Jacksonville, Florida - USA (ICW mile 747)
  235 2016-11-27 2016-11-28  29.20163  -81.01112 Halifax Harbor Marina, Daytona Beach, Florida - USA (ICW mile 831)
  236 2016-11-28 2016-11-30  28.14858  -80.60455 Telemar Bay Marina, Indian Harbour Beach, Florida - USA (ICW mile 914)
  237 2016-11-30 2016-12-01  27.45147  -80.32068 Fort Pierce, Florida - USA (ICW mile 967)
  238 2016-12-01 2016-12-03  26.71032  -80.04865 West Palm Beach Public Dock, South, Florida - USA (ICW mile 1023)
  239 2016-12-03 2016-12-18  25.73104  -80.23262 Shake-A-Leg Miami, Florida - USA (ICW mile 1094) (crew change - start leg 26)
  240 2016-12-18 2016-12-19  24.91977  -80.61097 Islamorada, Florida - USA
  241 2016-12-19 2016-12-21  24.57785  -81.78799 Key West, Florida - USA (ICW mile 1243)
  242 2017-01-02 2017-01-03   9.36940  -79.94472 Limon Bay anchorage, Colon, Panama
  243 2017-01-03 2017-01-10   9.36970  -79.95020 Shelter Bay Marina, Christobal, Panama
  244 2017-01-10 2017-01-11   9.11060  -79.70110 Gamboa, Panama
  245 2017-01-11 2017-01-19   8.93830  -79.55562 Balboa, Panama (crew change - start leg 27)
  246 2017-01-26 2017-01-28  -0.89546  -89.61354 Puerto Baquerizo Moreno, San Cristobal, Galapagos - Ecuador
  247 2017-01-28 2017-02-10  -0.74868  -90.30642 Puerto Ayora, Santa Cruz, Galapagos - Ecuador (crew change - start leg 28)
  248 2017-02-27 2017-03-03 -27.14180 -109.43424 Rapa Nui (crew change - start leg 29)
  249 2017-03-03 2017-03-04 -27.07227 -109.32361 Anakena, Rapa Nui
  250 2017-03-04 2017-03-10 -27.14310 -109.43480 Rapa Nui
  251 2017-03-21 2017-03-21 -24.37420 -128.32410 Henderson Island, Pitcairn (waypoint)
  252 2017-03-22 2017-03-22 -25.06667 -130.09338 Pitcairn Island
  253 2017-04-01 2017-04-04  -8.91585 -140.09769 Nuku Hiva, Marquesas - French Polynesia
  254 2017-04-04 2017-04-04  -9.35878 -140.04652 Ua Pou, Marquesas - French Polynesia
  255 2017-04-11 2017-04-13 -17.75190 -149.18030 Tautira - French Polynesia
  256 2017-04-14 2017-04-14 -17.49575 -149.49601 Point Venus, Matavai Bay, Māhina - French Polynesia
  257 2017-04-14 2017-04-24 -17.54095 -149.57305 Papeʻete - French Polynesia (crew change - start leg 30)
  258 2017-04-25 2017-04-26 -16.83352 -151.35965 Taputapuātea, Raʻiatea - French Polynesia
  259 2017-04-26 2017-04-27 -16.83496 -151.36453 Opoa, Raʻiatea - French Polynesia
  260 2017-04-29 2017-05-09 -17.54095 -149.57305 Papeʻete - French Polynesia (crew change - start leg 31)
  261 2017-05-09 2017-05-13 -17.77235 -149.43436 Mataiea, French Polynesia
  262 2017-05-13 2017-05-17 -17.75195 -149.18030 Tautira - French Polynesia
  263 2017-06-09 2017-06-10  20.03745 -155.83082 Kawaihae - Hawaiʻi
  264 2017-06-10 2017-06-11  20.51074 -156.68513 Honokanaiʻa - Hawaiʻi
  265 2017-06-11 2017-06-12  20.86990 -156.68279 Lahaina - Hawaiʻi
  266 2017-06-12 2017-06-13  21.18928 -156.98603 Kalaupapa - Hawaiʻi
  267 2017-06-15 2017-06-16  21.20554 -157.25359 Kawākiu Iki - Hawaiʻi
  268 2017-06-16 2017-06-17  21.26975 -157.72622 Maunalua - Hawaiʻi
  269 2017-06-17 2017-06-18  21.28583 -157.84465 Magic Island / Ala Moana - Honolulu - Hawaiʻi
  270 2017-06-18 2017-06-21  21.28875 -157.83628 Hawaiʻi Convention Center, Ala Wai - Honolulu - Hawaiʻi
  271 2017-06-21 2017-06-22  21.50715 -157.84035 Kualoa/Hakipuʻu- Oʻahu, Hawaiʻi
  272 2017-06-22 2017-mm-dd  21.31372 -157.88871 Māmala/METC - Oʻahu, Hawaiʻi
  273 2017-mm-dd 2017-mm-dd  21.31283 -157.88789 Māmala/METC - Oʻahu, Hawaiʻi - Drydock
  274 2017-08-20 2017-08-22  21.01463 -156.63940 Honolua - Maui, Hawaiʻi
  275 2017-08-23 2017-09-14  21.31283 -157.88789 Māmala/METC - Oʻahu, Hawaiʻi
  276 2017-09-14 2017-09-23  21.59357 -158.10576 Haleʻiwa - Hawaiʻi
  277 2017-09-24 2017-09-26  22.21236 -159.49831 Hanalei - Kauaʻi, Hawaiʻi
  278 2017-09-27 2017-mm-dd  21.31283 -157.88789 Māmala/METC - Oʻahu, Hawaiʻi
  279 2017-10-29 2017-10-29  21.26965 -157.72622 Maunalua - Hawaiʻi
  280 2017-10-29 2017-11-13  21.31283 -157.88789 Māmala/METC - Oʻahu, Hawaiʻi
  281 2017-11-13 2017-11-14  21.08277 -157.02758 Kaunakakai, Molokaʻi, Hawaiʻi
  282 2017-11-14 1417-11-15  20.86653 -156.68943 Lahaina, Maui, Hawaiʻi
  283 2017-11-15 2017-11-15  20.59550 -156.55150 Hakioawa, Kahoʻolawe, Hawaiʻi
  284 2017-11-15 1417-11-16  20.86653 -156.68948 Lahaina, Maui, Hawaiʻi
  285 2017-11-16 1417-11-17  20.58976 -156.41478 La Perouse Bay, Maui, Hawaiʻi
  286 2017-11-17 2017-11-19  20.75645 -155.98303 Hāna, Maui, Hawaiʻi
  287 2017-11-19 2017-11-30  21.08232 -157.02821 Kaunakakai, Molokaʻi, Hawaiʻi
  288 2017-11-30 2017-12-09  21.31283 -157.88789 Māmala/METC - Oʻahu, Hawaiʻi
  289 2017-12-09 2017-12-22  21.44348 -158.19042 Pōkaʻī Bay, Waiʻanae, Hawaiʻi
  290 2017-12-22 2018-01-03  21.31283 -157.88789 Māmala/METC - Oʻahu, Hawaiʻi
  291 2018-01-03 2018-01-10  21.32723 -158.12027 Ko Olina Marina - Oʻahu, Hawaiʻi
  292 2018-01-10 2018-01-21  21.31283 -157.88789 Māmala/METC - Oʻahu, Hawaiʻi
  293 2018-01-21 2018-02-03  21.33018 -158.11720 Ko Olina Marina - Oʻahu, Hawaiʻi
  294 2018-02-03 2018-02-10  21.31283 -157.88789 Māmala/METC - Oʻahu, Hawaiʻi
  295 2018-02-10 2018-02-16  21.37120 -157.93632 Rainbow Bay Marina, Puʻuloa, Pearl harbor - Oʻahu, Hawaiʻi
  296 2018-02-16 2018-02-17  21.31283 -157.88789 Māmala/METC - Oʻahu, Hawaiʻi
  297 2018-02-17 2018-02-17  21.47567 -158.22257 Mākaha - Oʻahu, Hawaiʻi
  298 2018-02-17 2018-02-19  21.31283 -157.88789 Māmala/METC - Oʻahu, Hawaiʻi
  299 2018-02-20 2018-03-02  20.79087 -156.51139 Maʻalaea - Maui, Hawaiʻi
  300 2018-03-02 2018-03-09  21.31283 -157.88789 Māmala/METC - Oʻahu, Hawaiʻi
  301 2018-03-09 2018-03-11  21.50610 -157.84051 Kualoa/Hakipuʻu- Oʻahu, Hawaiʻi
  302 2018-03-11 2018-03-17  21.31283 -157.88789 Māmala/METC - Oʻahu, Hawaiʻi
  303 2018-03-17 2018-03-17  21.64163 -158.06608 Waimea - Oʻahu, Hawaiʻi
  304 2018-03-17 2018-03-24  21.31283 -157.88789 Māmala/METC - Oʻahu, Hawaiʻi
  305 2018-03-26 2018-03-27  19.63907 -155.99623 Kailua Bay, Kona, Hawaiʻi
  306 2018-03-27 2018-03-28  19.66927 -156.02185 Honokōhau Harbor, Kona, Hawaiʻi
  307 2018-03-28 2018-03-31  19.63955 -155.99668 Kailua Bay, Kona, Hawaiʻi
  308 2018-04-01 2018-04-02  19.73218 -155.05223 Hilo, Hawaiʻi
  309 2018-04-02 2018-04-19  19.73018 -155.06557 Naniloa, Hilo, Hawaiʻi
  310 2018-04-19 2018-04-22  19.72314 -155.07048 Wailoa, Hilo, Hawaiʻi
  311 2018-04-22 2018-04-27  19.73018 -155.06557 Naniloa, Hilo, Hawaiʻi
  312 2018-04-28 2018-04-29  19.18503 -155.90915 Miloliʻi, Hawaiʻi
  313 2018-04-29 2018-05-01  20.03340 -155.82673 Kawaihae - Hawaiʻi
  314 2018-05-01 2018-05-11  21.31283 -157.88789 Māmala/METC - Oʻahu, Hawaiʻi
  315 2018-05-12 2018-05-24  21.28270 -157.71074 Hawaii Kai Towne Center - Hawaiʻi
  316 2018-05-24 2018-10-01  21.31283 -157.88789 Māmala/METC - Oʻahu, Hawaiʻi
  317 2018-10-02 2018-10-03  20.68343 -156.44422 Wailea, Maui, Hawaiʻi
  318 2018-10-04 2018-10-06  19.83305 -155.98767 Kona Village, Hawaiʻi
  319 2018-10-06 2018-10-06  20.86875 -156.68555 Lahaina, Maui, Hawaiʻi
  320 2018-10-07 2018-11-15  21.31306 -157.88866 Māmala/METC - Oʻahu, Hawaiʻi
  321 2018-11-15 2018-11-23  21.43260 -157.78934 Moku O Loʻe - Oʻahu, Hawaiʻi
  322 2018-11-23 2019-04-18  21.31306 -157.88866 Māmala/METC - Oʻahu, Hawaiʻi
  323 2019-04-18 2019-04-21  21.28875 -157.83628 Hawaiʻi Convention Center, Ala Wai - Honolulu - Hawaiʻi
  324 2019-04-21 2019-04-28  21.31306 -157.88866 Māmala/METC - Oʻahu, Hawaiʻi
  325 2019-04-29 2019-05-07  20.74226 -156.88772 Mānele Small Boat Harbor, Lānaʻi - Hawaiʻi
  326 2019-05-08 2019-mm-dd  21.31306 -157.88866 Māmala/METC - Oʻahu, Hawaiʻi **
  327 2019-mm-dd 2019-mm-dd  21.31306 -157.88866 Māmala/METC - Oʻahu, Hawaiʻi

  -- Hikianalia --
  328 2015-05-05 2015-05-20 -17.54090 -149.57329 Papeʻete - French Polynesia (Hikianalia)
  329 2015-06-16 2015-06-29  21.31352 -157.88874 Māmala/METC - Oʻahu, Hawaiʻi (Hikianalia)
  330 2015-06-03 2015-07-03  23.05400 -161.92820 Nihoa - Northwestern Hawaiian Islands (Hikianalia)
  331 2015-07-07 2015-09-dd  21.31362 -157.88871 Māmala/METC - Oʻahu, Hawaiʻi (Hikianalia)
  332 2015-10-01 2015-10-01  21.59308 -158.10500 Waʻa Talks - Haleʻiwa Boat Harbor - Oʻahu, Hawaiʻi (Hikianalia)
  333 2015-mm-dd 2015-10-13  21.31362 -157.88871 Māmala/METC - Oʻahu, Hawaiʻi (Hikianalia)
  334 2015-10-13 2015-10-27  21.32726 -158.12027 Waʻa Talks - Ko Olina Marina - Oʻahu, Hawaiʻi (Hikianalia)
  335 2015-10-27 2015-10-30  21.31352 -157.88871 Māmala/METC - Oʻahu, Hawaiʻi (Hikianalia)
  336 2015-10-31 2015-11-01  21.39846 -157.72511 Waʻa Talks - Kailua - Oʻahu, Hawaiʻi (Hikianalia)
  337 2015-11-01 2015-11-04  21.44429 -157.81017 Waʻa Talks - Heʻeia Kea - Oʻahu, Hawaiʻi (Hikianalia)
  338 2015-11-04 2015-11-05  21.55794 -157.87302 Waʻa Talks - Kahana Bay - Oʻahu, Hawaiʻi (Hikianalia)
  339 2015-11-06 2015-11-08  21.50715 -157.84035 Waʻa Talks - Kualoa/Hakipuʻu- Oʻahu, Hawaiʻi (Hikianalia)
  340 2015-11-08 2016-01-02  21.31362 -157.88871 Waʻa Talks - Māmala/METC - Oʻahu, Hawaiʻi (Hikianalia)
  341 2016-01-03 2016-01-17  20.87141 -156.68323 Lahaina, Maui County, Hawaiʻi (Hikianalia)
  342 2016-01-17 2016-01-25  20.90286 -156.68728 Wahikuli, Lahaina, Maui County, Hawaiʻi (Hikianalia)
  343 2016-01-25 2016-02-dd  21.08046 -157.02999 Kaunakakai - Molokaʻi, Hawaiʻi
  344 2016-02-dd 2016-02-05  20.87141 -156.68328 Lahaina, Maui County, Hawaiʻi (Hikianalia)
  345 2016-02-06 2016-02-13  21.31373 -157.88873 Māmala/METC - Oʻahu, Hawaiʻi (Hikianalia)
  346 2016-02-15 2016-02-19  20.03412 -155.82860 Kawaihae - Hawaiʻi
  347 2016-02-20 2016-02-26  19.73210 -155.05214 Hilo, Hawaiʻi (Hikianalia)
  348 2016-02-28 2016-03-12  20.03416 -155.82951 Kawaihae, Hawaiʻi (Hikianalia)
  349 2016-03-13 2016-03-17  21.31372 -157.88871 Māmala/METC - Oʻahu, Hawaiʻi (Hikianalia)
  350 2016-03-18 2016-04-07  21.94963 -159.35806 Nāwiliwili - Kauaʻi, Hawaiʻi
  351 2016-04-08 2017-03-21  21.31375 -157.88872 Māmala/METC - Oʻahu, Hawaiʻi (Hikianalia - crew change - start leg 29B)
  352 2017-03-23 2017-03-26  19.73215 -155.05214 Hilo, Hawaiʻi (Hikianalia)
  353 2017-04-12 2017-04-14 -17.54100 -149.57329 Papeʻete - French Polynesia (Hikianalia)
  354 2017-04-14 2017-04-14 -17.49575 -149.49651 Point Venus, Matavai Bay - French Polynesia
  355 2017-04-14 2017-04-24 -17.54095 -149.57305 Papeʻete - French Polynesia (crew change - start leg 30)
  356 2017-04-25 2017-04-26 -16.83352 -151.35965 Raʻiatea - French Polynesia
  357 2017-04-26 2017-04-26 -16.72956 -151.44281 Uturoa, Raʻiatea - French Polynesia
  358 2017-04-27 2017-05-09 -17.54095 -149.57305 Papeʻete - French Polynesia (crew change - start leg 31)
  359 2017-05-09 2017-05-13 -17.77235 -149.43436 Mataiea, French Polynesia
  360 2017-05-13 2017-05-17 -17.75198 -149.18030 Tautira - French Polynesia
  361 2017-06-17 2017-06-dd  21.28692 -157.84399 Magic Island / Ala Moana - Honolulu - Hawaiʻi
  362 2017-06-17 2017-mm-dd  21.31372 -157.88871 Māmala/METC - Oʻahu, Hawaiʻi
  363 2017-mm-dd 2017-mm-dd  21.31372 -157.88871 Māmala/METC - Oʻahu, Hawaiʻi
  364 2017-mm-dd 2017-09-23  21.31372 -157.88871 Hawaiʻi
  365 2017-09-24 2017-09-26  22.21310 -159.49991 Hanalei - Kauaʻi, Hawaiʻi
  366 2017-09-27 2017-12-09  21.31283 -157.88789 Māmala/METC - Oʻahu, Hawaiʻi
  367 2017-12-09 2017-12-10  21.44352 -158.19042 Pōkaʻī Bay, Waiʻanae, Hawaiʻi
  368 2017-12-10 2018-08-18  21.31283 -157.88789 Māmala/METC - Oʻahu, Hawaiʻi
  369 2018-08-28 2018-08-28  42.89485 -151.23292 North Pacific turn - Hawaiʻi to California (waypoint)
  370 2018-09-10 2018-09-13  37.50116 -122.49118 Half Moon Bay, California
  371 2018-09-13 2018-09-13  37.86426 -122.47799 Sausalito, California
  372 2018-09-13 2018-09-16  37.83318 -122.47470 Horseshoe Bay, California
  373 2018-09-16 2018-09-19  37.81040 -122.42271 Hyde Street Pier, Aquatic Park Cove, San Francisco, California(17,18)
  374 2018-09-19 2018-09-22  37.86506 -122.49342 Marinship, Sausalito, California
  375 2018-09-22 2018-09-23  37.86816 -122.49708 Spaulding Marine Center, Sausalito, California(22)
  376 2018-09-23 2018-09-26  37.50118 -122.48042 Johnson Pier, Pillar Point Harbor, Half Moon Bay, California(24,25)
  377 2018-09-27 2018-10-27  36.60440 -121.88714 Monterey Harbor Anchorage, California
  378 2018-09-27 2018-10-04  36.60548 -121.89261 Monterey Harbor, California(29,30)
  379 2018-10-07 2018-10-10  34.24123 -119.26383 Ventura Harbor Village, California(7)
  380 2018-10-10 2018-10-16  34.16524 -119.22593 Channel Islands Maritime Museum, California(13)
  381 2018-10-17 2018-10-22  33.84876 -118.40069 Redondo Beach, King Harbor, Los Angeles, California(20,21)
  382 2018-10-22 2018-10-23  33.34670 -118.32312 Avalon, Santa Catalina Island, California
  383 2018-10-23 2018-10-30  33.46113 -117.70610 Dana Point, Orange County, California(27,28)
  384 2018-10-30 2018-11-23  32.72110 -117.17393 Maritime Museum of San Diego, California(3,4)
  385 2018-12-11 201y-mm-dd  21.31283 -157.88789 Māmala/METC - Oʻahu, Hawaiʻi **
  386 2018-mm-dd 201y-mm-dd  21.31283 -157.88789 Māmala/METC - Oʻahu, Hawaiʻi

  Jump to: Map   Top of Page   Distances   Track Data   Planned Ports of Call   Notes   Google Earth   Bottom of Page
  Notes:
  Coordinated Universal Time (UTC) has time zone designator "Z" and is essentially the same as Greenwich Mean Time (GMT)
  Hawaiʻi Standard Time (HST) is 10 hours behind UTC, i.e. 11:00:00 UTC is 01:00:00 HST

  The Approximate Local Time calculation is based on longitude only,
  i.e. 15 degrees of longitude per hour,
  it does not completely coincide with official time zone regions.

  Here is a list of UTC time offsets for converting to your time zone.

  Here is another list of time zone offsets

------------------------------

  Conversion: 24/12 hour clock
  24 hour :  12 hour

      0   :  12 (midnight)
      1   :   1 AM
      2   :   2 AM
      3   :   3 AM
      4   :   4 AM
      5   :   5 AM
      6   :   6 AM
      7   :   7 AM
      8   :   8 AM
      9   :   9 AM
     10   :  10 AM
     11   :  11 AM
     12   :  12 (noon)
     13   :   1 PM
     14   :   2 PM
     15   :   3 PM
     16   :   4 PM
     17   :   5 PM
     18   :   6 PM
     19   :   7 PM
     20   :   8 PM
     21   :   9 PM
     22   :  10 PM
     23   :  11 PM

--------------------

                       + latitude = north
   - longitude = west                        + longitude = east
                       - latitude = south


  The five major circles of latitude:

  Arctic Circle        66° 33' 44" N  (  66.56222 )
  Tropic of Cancer     23° 26' 16" N  (  23.43778 )
  Equator               0° 00' 00"    (   0.00000 )
  Tropic of Capricorn  23° 26' 16" S  ( -23.43778 )
  Antarctic Circle     66° 33' 44" S  ( -66.56222 )

  View a map of almost every data point
  View a list of all the data points (both Hōkūleʻa and Hikianalia) [date-time latitude longitude course speed(kn)]
  View a map of Surface Winds near Hikianalia (Courtesy of earth.nullschool.net)
  Jump to: Map   Top of Page   Distances   Track Data   Planned Ports of Call   Notes   Google Earth   Bottom of Page
  View this map with Google Earth ( You may need to install the Google Earth application to view the voyage on a 3-D globe. )
  Get/install Google Earth
  Hōkūleʻa and Hikianalia information courtesy of Polynesian Voyaging Society
  Comments, requests, suggestions? If you would like an automatically generated e-mail notification each time Hōkūleʻa gets underway or stops, send e-mail to: Michael - mchlshntn@gmail.com
  Page updated: 2020-02-08T10:03:47 UTC ( 2020-02-08T00:03:47 HST )